ETH4PP EGLL-FIMP
Flight info
| Callsign | ETH4PP |
|---|---|
| Flight time | 11h 22m |
| Altitude | 23000 |
| Route | MODMI M185 MID L612 XAMAB/N0486F350 UL612 RESMI DCT BEPER DCT RETNO DCT PIGOS DCT DOKAR DCT SUNEV DCT KONUT/N0487F370 DCT NAXES DCT BELIX DCT SALUN DCT NUBAR DCT IMDUR/N0488F390 DCT EPLAS UM304 NAK UQ135 MOKAD/N0485F410 UL433 KISAK/N0488F400 UL433 ATOLA/N0484F410 UL433 APKOT DCT TIBAG TIBAG2E |
| Aircraft | A359/H-SDE2E3GHIJ3J4J5LM1ORWXY/LB1D1 |
Departure
| Time | 2026-05-08 21:42 |
|---|---|
| Airport | London Heathrow Airport (EGLL) |
Arrival
| Time | 2026-05-09 09:04 |
|---|---|
| Airport | Sir Seewoosagur Ramgoolam International Airport (FIMP) |
| Time | Latitude | Longitude | Altitude | Speed | Heading |
|---|---|---|---|---|---|
| 2026-05-08 20:43 | 51.46845 | -0.45577 | 77 ft | 0 kts | 0° |
| 2026-05-08 21:24 | 51.46838 | -0.45577 | 88 ft | 2 kts | 1° |
| 2026-05-08 21:24 | 51.46818 | -0.45578 | 88 ft | 3 kts | 1° |
| 2026-05-08 21:24 | 51.46798 | -0.45579 | 90 ft | 3 kts | 1° |
| 2026-05-08 21:25 | 51.46781 | -0.45579 | 90 ft | 2 kts | 360° |
| 2026-05-08 21:25 | 51.46763 | -0.45577 | 91 ft | 3 kts | 336° |
| 2026-05-08 21:25 | 51.46749 | -0.45560 | 90 ft | 3 kts | 295° |
| 2026-05-08 21:25 | 51.46744 | -0.45531 | 89 ft | 3 kts | 269° |
| 2026-05-08 21:26 | 51.46746 | -0.45499 | 91 ft | 3 kts | 260° |
| 2026-05-08 21:26 | 51.46749 | -0.45467 | 90 ft | 3 kts | 263° |
| 2026-05-08 21:26 | 51.46750 | -0.45449 | 89 ft | 0 kts | 270° |
| 2026-05-08 21:26 | 51.46750 | -0.45448 | 89 ft | 0 kts | 270° |
| 2026-05-08 21:29 | 51.46750 | -0.45449 | 89 ft | 0 kts | 270° |
| 2026-05-08 21:29 | 51.46750 | -0.45486 | 91 ft | 8 kts | 269° |
| 2026-05-08 21:29 | 51.46748 | -0.45587 | 92 ft | 12 kts | 268° |
| 2026-05-08 21:30 | 51.46747 | -0.45730 | 92 ft | 13 kts | 269° |
| 2026-05-08 21:30 | 51.46747 | -0.45900 | 92 ft | 19 kts | 270° |
| 2026-05-08 21:30 | 51.46748 | -0.46144 | 92 ft | 24 kts | 270° |
| 2026-05-08 21:30 | 51.46748 | -0.46408 | 92 ft | 24 kts | 270° |
| 2026-05-08 21:31 | 51.46748 | -0.46670 | 92 ft | 23 kts | 269° |
| 2026-05-08 21:31 | 51.46746 | -0.46926 | 92 ft | 23 kts | 269° |
| 2026-05-08 21:31 | 51.46745 | -0.47173 | 92 ft | 21 kts | 270° |
| 2026-05-08 21:31 | 51.46744 | -0.47406 | 90 ft | 21 kts | 269° |
| 2026-05-08 21:32 | 51.46743 | -0.47642 | 90 ft | 21 kts | 269° |
| 2026-05-08 21:32 | 51.46742 | -0.47876 | 90 ft | 19 kts | 270° |
| 2026-05-08 21:32 | 51.46743 | -0.48090 | 88 ft | 19 kts | 269° |
| 2026-05-08 21:32 | 51.46742 | -0.48202 | 88 ft | 0 kts | 269° |
| 2026-05-08 21:33 | 51.46742 | -0.48205 | 88 ft | 2 kts | 269° |
| 2026-05-08 21:33 | 51.46741 | -0.48347 | 88 ft | 23 kts | 270° |
| 2026-05-08 21:33 | 51.46741 | -0.48540 | 88 ft | 7 kts | 269° |
| 2026-05-08 21:34 | 51.46741 | -0.48571 | 88 ft | 0 kts | 269° |
| 2026-05-08 21:36 | 51.46741 | -0.48580 | 88 ft | 6 kts | 269° |
| 2026-05-08 21:37 | 51.46717 | -0.48723 | 90 ft | 15 kts | 218° |
| 2026-05-08 21:37 | 51.46621 | -0.48761 | 88 ft | 13 kts | 196° |
| 2026-05-08 21:37 | 51.46609 | -0.48766 | 91 ft | 0 kts | 195° |
| 2026-05-08 21:40 | 51.46604 | -0.48768 | 91 ft | 5 kts | 195° |
| 2026-05-08 21:40 | 51.46507 | -0.48752 | 93 ft | 20 kts | 139° |
| 2026-05-08 21:40 | 51.46480 | -0.48619 | 93 ft | 0 kts | 90° |
| 2026-05-08 21:41 | 51.46480 | -0.48559 | 89 ft | 20 kts | 90° |
| 2026-05-08 21:41 | 51.46481 | -0.47927 | 89 ft | 95 kts | 90° |
| 2026-05-08 21:41 | 51.46485 | -0.46472 | 93 ft | 164 kts | 90° |
| 2026-05-08 21:42 | 51.46491 | -0.44437 | 523 ft | 191 kts | 89° |
| 2026-05-08 21:42 | 51.46378 | -0.42329 | 1496 ft | 195 kts | 103° |
| 2026-05-08 21:42 | 51.45866 | -0.40240 | 1846 ft | 211 kts | 119° |
| 2026-05-08 21:42 | 51.44805 | -0.38527 | 2043 ft | 231 kts | 153° |
| 2026-05-08 21:43 | 51.43235 | -0.37675 | 2464 ft | 242 kts | 163° |
| 2026-05-08 21:43 | 51.41594 | -0.36902 | 2988 ft | 248 kts | 162° |
| 2026-05-08 21:43 | 51.39886 | -0.36400 | 3528 ft | 254 kts | 179° |
| 2026-05-08 21:43 | 51.38160 | -0.37035 | 4124 ft | 258 kts | 202° |
| 2026-05-08 21:44 | 51.36541 | -0.38289 | 4713 ft | 261 kts | 205° |
| 2026-05-08 21:44 | 51.34908 | -0.39599 | 5319 ft | 263 kts | 205° |
| 2026-05-08 21:44 | 51.33249 | -0.40904 | 5910 ft | 266 kts | 205° |
| 2026-05-08 21:44 | 51.31579 | -0.42206 | 6501 ft | 268 kts | 205° |
| 2026-05-08 21:45 | 51.29897 | -0.43524 | 7087 ft | 270 kts | 205° |
| 2026-05-08 21:45 | 51.28206 | -0.44842 | 7683 ft | 271 kts | 205° |
| 2026-05-08 21:45 | 51.26511 | -0.46166 | 8283 ft | 273 kts | 206° |
| 2026-05-08 21:45 | 51.24803 | -0.47493 | 8879 ft | 275 kts | 206° |
| 2026-05-08 21:46 | 51.23056 | -0.48844 | 9510 ft | 277 kts | 206° |
| 2026-05-08 21:46 | 51.21318 | -0.50192 | 10134 ft | 279 kts | 206° |
| 2026-05-08 21:46 | 51.19538 | -0.51572 | 10499 ft | 290 kts | 206° |
| 2026-05-08 21:46 | 51.17677 | -0.53015 | 10744 ft | 304 kts | 206° |
| 2026-05-08 21:47 | 51.15734 | -0.54520 | 10999 ft | 318 kts | 206° |
| 2026-05-08 21:47 | 51.13703 | -0.56091 | 11237 ft | 331 kts | 206° |
| 2026-05-08 21:47 | 51.11593 | -0.57721 | 11481 ft | 343 kts | 206° |
| 2026-05-08 21:47 | 51.09377 | -0.59328 | 11711 ft | 355 kts | 201° |
| 2026-05-08 21:48 | 51.06991 | -0.60293 | 11927 ft | 366 kts | 187° |
| 2026-05-08 21:48 | 51.04412 | -0.60195 | 12272 ft | 374 kts | 170° |
| 2026-05-08 21:48 | 51.01941 | -0.58839 | 12682 ft | 380 kts | 154° |
| 2026-05-08 21:48 | 50.99625 | -0.56749 | 13104 ft | 384 kts | 149° |
| 2026-05-08 21:49 | 50.97385 | -0.54391 | 13530 ft | 388 kts | 146° |
| 2026-05-08 21:49 | 50.95177 | -0.51925 | 13955 ft | 391 kts | 146° |
| 2026-05-08 21:49 | 50.92938 | -0.49404 | 14336 ft | 394 kts | 146° |
| 2026-05-08 21:49 | 50.90689 | -0.46906 | 14732 ft | 397 kts | 146° |
| 2026-05-08 21:50 | 50.88409 | -0.44419 | 15131 ft | 399 kts | 147° |
| 2026-05-08 21:50 | 50.86097 | -0.41936 | 15541 ft | 401 kts | 147° |
| 2026-05-08 21:50 | 50.83774 | -0.39466 | 15949 ft | 404 kts | 147° |
| 2026-05-08 21:50 | 50.81437 | -0.36995 | 16329 ft | 406 kts | 148° |
| 2026-05-08 21:51 | 50.79076 | -0.34507 | 16713 ft | 408 kts | 148° |
| 2026-05-08 21:51 | 50.76736 | -0.32044 | 17101 ft | 410 kts | 148° |
| 2026-05-08 21:51 | 50.74316 | -0.29497 | 17488 ft | 413 kts | 148° |
| 2026-05-08 21:51 | 50.71952 | -0.27011 | 17861 ft | 415 kts | 148° |
| 2026-05-08 21:52 | 50.69541 | -0.24476 | 18225 ft | 417 kts | 148° |
| 2026-05-08 21:52 | 50.67123 | -0.21928 | 18576 ft | 419 kts | 148° |
| 2026-05-08 21:52 | 50.64689 | -0.19372 | 18878 ft | 421 kts | 148° |
| 2026-05-08 21:52 | 50.62237 | -0.16806 | 19203 ft | 423 kts | 148° |
| 2026-05-08 21:53 | 50.59777 | -0.14234 | 19520 ft | 425 kts | 148° |
| 2026-05-08 21:53 | 50.57308 | -0.11655 | 19835 ft | 426 kts | 148° |
| 2026-05-08 21:53 | 50.54834 | -0.09073 | 20165 ft | 428 kts | 148° |
| 2026-05-08 21:53 | 50.52349 | -0.06485 | 20456 ft | 430 kts | 148° |
| 2026-05-08 21:54 | 50.49849 | -0.03884 | 20757 ft | 432 kts | 148° |
| 2026-05-08 21:54 | 50.47334 | -0.01270 | 21048 ft | 434 kts | 148° |
| 2026-05-08 21:54 | 50.44813 | 0.01347 | 21378 ft | 435 kts | 148° |
| 2026-05-08 21:54 | 50.42280 | 0.03971 | 21675 ft | 437 kts | 148° |
| 2026-05-08 21:55 | 50.39730 | 0.06610 | 21974 ft | 439 kts | 148° |
| 2026-05-08 21:55 | 50.37175 | 0.09251 | 22265 ft | 441 kts | 148° |
| 2026-05-08 21:55 | 50.34602 | 0.11912 | 22566 ft | 443 kts | 148° |
| 2026-05-08 21:56 | 50.29465 | 0.17202 | 23153 ft | 447 kts | 148° |
| 2026-05-08 21:56 | 50.26861 | 0.19872 | 23457 ft | 449 kts | 148° |
| 2026-05-08 21:56 | 50.24239 | 0.22575 | 23740 ft | 451 kts | 148° |
| 2026-05-08 21:56 | 50.21609 | 0.25277 | 23947 ft | 453 kts | 148° |
| 2026-05-08 21:57 | 50.18980 | 0.27972 | 24179 ft | 455 kts | 148° |
| 2026-05-08 21:57 | 50.16321 | 0.30705 | 24394 ft | 458 kts | 148° |
| 2026-05-08 21:57 | 50.13658 | 0.33443 | 24619 ft | 459 kts | 148° |
| 2026-05-08 21:57 | 50.10978 | 0.36197 | 24862 ft | 461 kts | 148° |
| 2026-05-08 21:58 | 50.09197 | 0.38025 | 25010 ft | 463 kts | 148° |
| 2026-05-08 21:58 | 50.06499 | 0.40787 | 25228 ft | 465 kts | 148° |
| 2026-05-08 21:58 | 50.03790 | 0.43556 | 25463 ft | 467 kts | 148° |
| 2026-05-08 21:58 | 50.01068 | 0.46335 | 25701 ft | 469 kts | 148° |
| 2026-05-08 21:59 | 49.98339 | 0.49119 | 25936 ft | 471 kts | 148° |
| 2026-05-08 21:59 | 49.95589 | 0.51920 | 26191 ft | 473 kts | 148° |
| 2026-05-08 21:59 | 49.92837 | 0.54720 | 26450 ft | 474 kts | 148° |
| 2026-05-08 21:59 | 49.90066 | 0.57533 | 26677 ft | 476 kts | 148° |
| 2026-05-08 22:00 | 49.87288 | 0.60356 | 26928 ft | 478 kts | 147° |
| 2026-05-08 22:00 | 49.84631 | 0.63382 | 27181 ft | 480 kts | 143° |
| 2026-05-08 22:00 | 49.82016 | 0.66572 | 27420 ft | 482 kts | 142° |
| 2026-05-08 22:00 | 49.79381 | 0.69854 | 27677 ft | 484 kts | 142° |
| 2026-05-08 22:01 | 49.76763 | 0.73150 | 27910 ft | 486 kts | 141° |
| 2026-05-08 22:01 | 49.74131 | 0.76474 | 28145 ft | 488 kts | 141° |
| 2026-05-08 22:01 | 49.71494 | 0.79802 | 28371 ft | 490 kts | 141° |
| 2026-05-08 22:01 | 49.68844 | 0.83135 | 28595 ft | 492 kts | 141° |
| 2026-05-08 22:02 | 49.66180 | 0.86474 | 28819 ft | 494 kts | 142° |
| 2026-05-08 22:02 | 49.63504 | 0.89818 | 29032 ft | 496 kts | 142° |
| 2026-05-08 22:02 | 49.60812 | 0.93175 | 29267 ft | 498 kts | 142° |
| 2026-05-08 22:02 | 49.58123 | 0.96522 | 29491 ft | 499 kts | 142° |
| 2026-05-08 22:03 | 49.55405 | 0.99901 | 29710 ft | 501 kts | 142° |
| 2026-05-08 22:03 | 49.52692 | 1.03268 | 30038 ft | 500 kts | 142° |
| 2026-05-08 22:03 | 49.49991 | 1.06616 | 30348 ft | 499 kts | 142° |
| 2026-05-08 22:03 | 49.47285 | 1.09966 | 30621 ft | 499 kts | 142° |
| 2026-05-08 22:04 | 49.44624 | 1.13254 | 30886 ft | 499 kts | 142° |
| 2026-05-08 22:04 | 49.41913 | 1.16600 | 31164 ft | 498 kts | 142° |
| 2026-05-08 22:04 | 49.39209 | 1.19930 | 31455 ft | 497 kts | 142° |
| 2026-05-08 22:04 | 49.36502 | 1.23259 | 31738 ft | 497 kts | 142° |
| 2026-05-08 22:05 | 49.33812 | 1.26565 | 32004 ft | 496 kts | 142° |
| 2026-05-08 22:05 | 49.31119 | 1.29872 | 32266 ft | 496 kts | 142° |
| 2026-05-08 22:05 | 49.28420 | 1.33183 | 32547 ft | 495 kts | 142° |
| 2026-05-08 22:05 | 49.25738 | 1.36466 | 32817 ft | 495 kts | 142° |
| 2026-05-08 22:06 | 49.23053 | 1.39749 | 33080 ft | 494 kts | 142° |
| 2026-05-08 22:06 | 49.20361 | 1.43034 | 33334 ft | 494 kts | 142° |
| 2026-05-08 22:06 | 49.17671 | 1.46312 | 33608 ft | 493 kts | 142° |
| 2026-05-08 22:06 | 49.14998 | 1.49566 | 33890 ft | 492 kts | 142° |
| 2026-05-08 22:07 | 49.12305 | 1.52838 | 34148 ft | 492 kts | 142° |
| 2026-05-08 22:07 | 49.09628 | 1.56087 | 34352 ft | 491 kts | 142° |
| 2026-05-08 22:07 | 49.06956 | 1.59324 | 34581 ft | 491 kts | 143° |
| 2026-05-08 22:07 | 49.04277 | 1.62565 | 34817 ft | 490 kts | 143° |
| 2026-05-08 22:08 | 49.01604 | 1.65795 | 34999 ft | 490 kts | 143° |
| 2026-05-08 22:08 | 48.96215 | 1.72290 | 35075 ft | 497 kts | 143° |
| 2026-05-08 22:09 | 48.90818 | 1.78779 | 35073 ft | 496 kts | 143° |
| 2026-05-08 22:09 | 48.85399 | 1.85278 | 35074 ft | 496 kts | 143° |
| 2026-05-08 22:10 | 48.79966 | 1.91772 | 35074 ft | 496 kts | 143° |
| 2026-05-08 22:10 | 48.74543 | 1.98237 | 35075 ft | 496 kts | 143° |
| 2026-05-08 22:11 | 48.69111 | 2.04693 | 35077 ft | 496 kts | 143° |
| 2026-05-08 22:11 | 48.63682 | 2.11129 | 35073 ft | 496 kts | 143° |
| 2026-05-08 22:12 | 48.58238 | 2.17536 | 35071 ft | 495 kts | 145° |
| 2026-05-08 22:12 | 48.52399 | 2.22959 | 35068 ft | 493 kts | 152° |
| 2026-05-08 22:13 | 48.46385 | 2.27997 | 35064 ft | 493 kts | 153° |
| 2026-05-08 22:13 | 48.40375 | 2.32950 | 35062 ft | 492 kts | 153° |
| 2026-05-08 22:14 | 48.34372 | 2.37903 | 35060 ft | 492 kts | 153° |
| 2026-05-08 22:14 | 48.28363 | 2.42867 | 35062 ft | 492 kts | 153° |
| 2026-05-08 22:15 | 48.22404 | 2.47781 | 35059 ft | 492 kts | 153° |
| 2026-05-08 22:15 | 48.16403 | 2.52718 | 35059 ft | 491 kts | 153° |
| 2026-05-08 22:16 | 48.10402 | 2.57639 | 35057 ft | 491 kts | 153° |
| 2026-05-08 22:16 | 48.04409 | 2.62541 | 35056 ft | 491 kts | 153° |
| 2026-05-08 22:17 | 47.98422 | 2.67425 | 35054 ft | 491 kts | 153° |
| 2026-05-08 22:17 | 47.92420 | 2.72308 | 35054 ft | 491 kts | 153° |
| 2026-05-08 22:18 | 47.86452 | 2.77150 | 35048 ft | 490 kts | 153° |
| 2026-05-08 22:18 | 47.80461 | 2.81998 | 35049 ft | 490 kts | 153° |
| 2026-05-08 22:19 | 47.74477 | 2.86828 | 35046 ft | 489 kts | 153° |
| 2026-05-08 22:19 | 47.68487 | 2.91650 | 35049 ft | 489 kts | 153° |
| 2026-05-08 22:20 | 47.62501 | 2.96456 | 35045 ft | 489 kts | 154° |
| 2026-05-08 22:20 | 47.56524 | 3.01242 | 35049 ft | 489 kts | 154° |
| 2026-05-08 22:21 | 47.50526 | 3.06033 | 35046 ft | 489 kts | 154° |
| 2026-05-08 22:21 | 47.44553 | 3.10790 | 35043 ft | 488 kts | 154° |
| 2026-05-08 22:22 | 47.38554 | 3.15556 | 35042 ft | 488 kts | 154° |
| 2026-05-08 22:22 | 47.32573 | 3.20296 | 35041 ft | 488 kts | 154° |
| 2026-05-08 22:23 | 47.26593 | 3.25023 | 35039 ft | 488 kts | 154° |
| 2026-05-08 22:23 | 47.20605 | 3.29744 | 35038 ft | 487 kts | 154° |
| 2026-05-08 22:24 | 47.14665 | 3.34415 | 35036 ft | 487 kts | 154° |
| 2026-05-08 22:24 | 47.08698 | 3.39095 | 35035 ft | 486 kts | 154° |
| 2026-05-08 22:25 | 47.02732 | 3.43761 | 35034 ft | 486 kts | 154° |
| 2026-05-08 22:25 | 46.96764 | 3.48418 | 35033 ft | 486 kts | 154° |
| 2026-05-08 22:26 | 46.90795 | 3.53064 | 35033 ft | 485 kts | 154° |
| 2026-05-08 22:26 | 46.84843 | 3.57685 | 35031 ft | 484 kts | 154° |
| 2026-05-08 22:27 | 46.78896 | 3.62290 | 35028 ft | 483 kts | 154° |
| 2026-05-08 22:27 | 46.72954 | 3.66881 | 35029 ft | 482 kts | 154° |
| 2026-05-08 22:28 | 46.67024 | 3.71450 | 35023 ft | 481 kts | 154° |
| 2026-05-08 22:28 | 46.61108 | 3.75997 | 35024 ft | 481 kts | 154° |
| 2026-05-08 22:29 | 46.55183 | 3.80539 | 35022 ft | 481 kts | 154° |
| 2026-05-08 22:29 | 46.49295 | 3.85041 | 35023 ft | 481 kts | 154° |
| 2026-05-08 22:30 | 46.43372 | 3.89560 | 35019 ft | 480 kts | 154° |
| 2026-05-08 22:30 | 46.37459 | 3.94061 | 35022 ft | 480 kts | 154° |
| 2026-05-08 22:31 | 46.31533 | 3.98559 | 35019 ft | 480 kts | 154° |
| 2026-05-08 22:31 | 46.25617 | 4.03039 | 35024 ft | 480 kts | 154° |
| 2026-05-08 22:32 | 46.19720 | 4.07493 | 35025 ft | 479 kts | 154° |
| 2026-05-08 22:32 | 46.13790 | 4.11961 | 35030 ft | 479 kts | 154° |
| 2026-05-08 22:33 | 46.07902 | 4.16388 | 35036 ft | 479 kts | 155° |
| 2026-05-08 22:33 | 46.01978 | 4.20831 | 35037 ft | 479 kts | 155° |
| 2026-05-08 22:34 | 45.96059 | 4.25259 | 35041 ft | 479 kts | 155° |
| 2026-05-08 22:34 | 45.90137 | 4.29679 | 35043 ft | 479 kts | 155° |
| 2026-05-08 22:35 | 45.84216 | 4.34087 | 35044 ft | 479 kts | 155° |
| 2026-05-08 22:35 | 45.78350 | 4.38444 | 35048 ft | 479 kts | 155° |
| 2026-05-08 22:36 | 45.72412 | 4.42843 | 35046 ft | 478 kts | 155° |
| 2026-05-08 22:36 | 45.66486 | 4.47223 | 35047 ft | 478 kts | 155° |
| 2026-05-08 22:37 | 45.60562 | 4.51591 | 35047 ft | 478 kts | 155° |
| 2026-05-08 22:37 | 45.54688 | 4.55913 | 35052 ft | 478 kts | 155° |
| 2026-05-08 22:38 | 45.48734 | 4.60282 | 35051 ft | 478 kts | 155° |
| 2026-05-08 22:38 | 45.42861 | 4.64582 | 35054 ft | 478 kts | 155° |
| 2026-05-08 22:39 | 45.36946 | 4.68904 | 35057 ft | 478 kts | 156° |
| 2026-05-08 22:39 | 45.31030 | 4.73215 | 35062 ft | 477 kts | 156° |
| 2026-05-08 22:40 | 45.25114 | 4.77516 | 35060 ft | 477 kts | 156° |
| 2026-05-08 22:40 | 45.19195 | 4.81811 | 35067 ft | 477 kts | 156° |
| 2026-05-08 22:41 | 45.13281 | 4.86090 | 35063 ft | 477 kts | 157° |
| 2026-05-08 22:41 | 45.07363 | 4.90360 | 35072 ft | 477 kts | 157° |
| 2026-05-08 22:42 | 45.01486 | 4.94592 | 35071 ft | 477 kts | 157° |
| 2026-05-08 22:42 | 44.95571 | 4.98843 | 35074 ft | 477 kts | 158° |
| 2026-05-08 22:43 | 44.89663 | 5.03078 | 35077 ft | 477 kts | 158° |
| 2026-05-08 22:43 | 44.84702 | 5.06626 | 35080 ft | 477 kts | 158° |
| 2026-05-08 22:44 | 44.78826 | 5.10819 | 35084 ft | 476 kts | 158° |
| 2026-05-08 22:44 | 44.72910 | 5.15031 | 35088 ft | 476 kts | 158° |
| 2026-05-08 22:45 | 44.66999 | 5.19285 | 35088 ft | 478 kts | 155° |
| 2026-05-08 22:45 | 44.61662 | 5.24997 | 35095 ft | 490 kts | 139° |
| 2026-05-08 22:46 | 44.57018 | 5.32070 | 35102 ft | 494 kts | 136° |
| 2026-05-08 22:46 | 44.52503 | 5.39344 | 35104 ft | 495 kts | 136° |
| 2026-05-08 22:47 | 44.47986 | 5.46589 | 35110 ft | 494 kts | 136° |
| 2026-05-08 22:47 | 44.43423 | 5.53820 | 35103 ft | 494 kts | 137° |
| 2026-05-08 22:48 | 44.38884 | 5.61086 | 35106 ft | 498 kts | 133° |
| 2026-05-08 22:48 | 44.35086 | 5.69170 | 35106 ft | 503 kts | 126° |
| 2026-05-08 22:49 | 44.31496 | 5.77631 | 35101 ft | 505 kts | 125° |
| 2026-05-08 22:49 | 44.26168 | 5.90329 | 35107 ft | 505 kts | 125° |
| 2026-05-08 22:50 | 44.22589 | 5.98769 | 35106 ft | 505 kts | 125° |
| 2026-05-08 22:50 | 44.18999 | 6.07186 | 35105 ft | 505 kts | 126° |
| 2026-05-08 22:51 | 44.15425 | 6.15536 | 35112 ft | 505 kts | 126° |
| 2026-05-08 22:51 | 44.11822 | 6.23944 | 35112 ft | 505 kts | 125° |
| 2026-05-08 22:52 | 44.08213 | 6.32337 | 35116 ft | 505 kts | 126° |
| 2026-05-08 22:52 | 44.04596 | 6.40711 | 35116 ft | 505 kts | 126° |
| 2026-05-08 22:53 | 44.00979 | 6.49063 | 35117 ft | 504 kts | 126° |
| 2026-05-08 22:53 | 43.97352 | 6.57415 | 35111 ft | 504 kts | 126° |
| 2026-05-08 22:54 | 43.93724 | 6.65749 | 35116 ft | 504 kts | 126° |
| 2026-05-08 22:54 | 43.90125 | 6.73994 | 35111 ft | 504 kts | 126° |
| 2026-05-08 22:55 | 43.86478 | 6.82329 | 35110 ft | 504 kts | 126° |
| 2026-05-08 22:55 | 43.82835 | 6.90626 | 35103 ft | 503 kts | 126° |
| 2026-05-08 22:56 | 43.79187 | 6.98910 | 35101 ft | 503 kts | 126° |
| 2026-05-08 22:56 | 43.75565 | 7.07112 | 35103 ft | 503 kts | 127° |
| 2026-05-08 22:57 | 43.71910 | 7.15366 | 35103 ft | 502 kts | 127° |
| 2026-05-08 22:57 | 43.68257 | 7.23593 | 35099 ft | 502 kts | 127° |
| 2026-05-08 22:58 | 43.64597 | 7.31810 | 35101 ft | 502 kts | 127° |
| 2026-05-08 22:58 | 43.60930 | 7.40024 | 35097 ft | 502 kts | 128° |
| 2026-05-08 22:59 | 43.57235 | 7.48180 | 35082 ft | 501 kts | 128° |
| 2026-05-08 22:59 | 43.53524 | 7.56304 | 35092 ft | 501 kts | 128° |
| 2026-05-08 23:00 | 43.49836 | 7.64370 | 35079 ft | 500 kts | 128° |
| 2026-05-08 23:00 | 43.46123 | 7.72482 | 35079 ft | 500 kts | 129° |
| 2026-05-08 23:01 | 43.42408 | 7.80580 | 35083 ft | 500 kts | 129° |
| 2026-05-08 23:01 | 43.38686 | 7.88667 | 35078 ft | 500 kts | 129° |
| 2026-05-08 23:02 | 43.34957 | 7.96753 | 35082 ft | 500 kts | 129° |
| 2026-05-08 23:02 | 43.31222 | 8.04827 | 35081 ft | 501 kts | 129° |
| 2026-05-08 23:03 | 43.27477 | 8.12901 | 35082 ft | 501 kts | 129° |
| 2026-05-08 23:03 | 43.23754 | 8.20905 | 35085 ft | 501 kts | 129° |
| 2026-05-08 23:04 | 43.19997 | 8.28964 | 35084 ft | 501 kts | 129° |
| 2026-05-08 23:04 | 43.16238 | 8.37002 | 35086 ft | 501 kts | 129° |
| 2026-05-08 23:05 | 43.12477 | 8.45023 | 35089 ft | 501 kts | 129° |
| 2026-05-08 23:05 | 43.08698 | 8.53056 | 35085 ft | 501 kts | 129° |
| 2026-05-08 23:06 | 43.04915 | 8.61080 | 35087 ft | 502 kts | 129° |
| 2026-05-08 23:06 | 43.01124 | 8.69096 | 35088 ft | 503 kts | 129° |
| 2026-05-08 23:07 | 42.97320 | 8.77122 | 35087 ft | 503 kts | 129° |
| 2026-05-08 23:07 | 42.93505 | 8.85145 | 35090 ft | 504 kts | 129° |
| 2026-05-08 23:08 | 42.89705 | 8.93119 | 35079 ft | 504 kts | 129° |
| 2026-05-08 23:08 | 42.85846 | 9.01193 | 35087 ft | 505 kts | 129° |
| 2026-05-08 23:09 | 42.82012 | 9.09193 | 35085 ft | 504 kts | 129° |
| 2026-05-08 23:09 | 42.78193 | 9.17138 | 35086 ft | 504 kts | 129° |
| 2026-05-08 23:10 | 42.74344 | 9.25127 | 35082 ft | 504 kts | 129° |
| 2026-05-08 23:10 | 42.70498 | 9.33087 | 35081 ft | 503 kts | 128° |
| 2026-05-08 23:11 | 42.66643 | 9.41045 | 35068 ft | 503 kts | 128° |
| 2026-05-08 23:11 | 42.62790 | 9.48979 | 35075 ft | 503 kts | 128° |
| 2026-05-08 23:12 | 42.58929 | 9.56908 | 35072 ft | 503 kts | 128° |
| 2026-05-08 23:12 | 42.55082 | 9.64786 | 35076 ft | 504 kts | 128° |
| 2026-05-08 23:13 | 42.51330 | 9.72849 | 35074 ft | 509 kts | 121° |
| 2026-05-08 23:13 | 42.48949 | 9.81973 | 35076 ft | 517 kts | 111° |
| 2026-05-08 23:14 | 42.45989 | 9.90725 | 35079 ft | 508 kts | 128° |
| 2026-05-08 23:14 | 42.42009 | 9.98625 | 35081 ft | 507 kts | 130° |
| 2026-05-08 23:15 | 42.37865 | 10.06309 | 35080 ft | 508 kts | 131° |
| 2026-05-08 23:15 | 42.33669 | 10.14015 | 35083 ft | 509 kts | 131° |
| 2026-05-08 23:16 | 42.29483 | 10.21733 | 35083 ft | 510 kts | 131° |
| 2026-05-08 23:16 | 42.25293 | 10.29472 | 35076 ft | 511 kts | 131° |
| 2026-05-08 23:17 | 42.21100 | 10.37203 | 35076 ft | 511 kts | 131° |
| 2026-05-08 23:17 | 42.16887 | 10.44949 | 35086 ft | 512 kts | 131° |
| 2026-05-08 23:18 | 42.12666 | 10.52687 | 35083 ft | 512 kts | 131° |
| 2026-05-08 23:18 | 42.08435 | 10.60424 | 35090 ft | 513 kts | 131° |
| 2026-05-08 23:19 | 42.04193 | 10.68162 | 35071 ft | 513 kts | 131° |
| 2026-05-08 23:19 | 41.99971 | 10.75843 | 35083 ft | 514 kts | 131° |
| 2026-05-08 23:20 | 41.95713 | 10.83571 | 35078 ft | 515 kts | 131° |
| 2026-05-08 23:20 | 41.91442 | 10.91303 | 35081 ft | 516 kts | 131° |
| 2026-05-08 23:21 | 41.87154 | 10.99044 | 35077 ft | 516 kts | 132° |
| 2026-05-08 23:21 | 41.82864 | 11.06771 | 35076 ft | 517 kts | 132° |
| 2026-05-08 23:22 | 41.78564 | 11.14495 | 35072 ft | 517 kts | 132° |
| 2026-05-08 23:22 | 41.74253 | 11.22220 | 35074 ft | 518 kts | 132° |
| 2026-05-08 23:23 | 41.69931 | 11.29945 | 35072 ft | 518 kts | 132° |
| 2026-05-08 23:23 | 41.65607 | 11.37636 | 35077 ft | 525 kts | 130° |
| 2026-05-08 23:24 | 41.61154 | 11.45552 | 35071 ft | 534 kts | 130° |
| 2026-05-08 23:24 | 41.56690 | 11.53481 | 35071 ft | 533 kts | 130° |
| 2026-05-08 23:25 | 41.52255 | 11.61333 | 35065 ft | 532 kts | 130° |
| 2026-05-08 23:25 | 41.47791 | 11.69210 | 35073 ft | 533 kts | 130° |
| 2026-05-08 23:26 | 41.43309 | 11.77097 | 35064 ft | 533 kts | 130° |
| 2026-05-08 23:26 | 41.38822 | 11.84973 | 35065 ft | 534 kts | 130° |
| 2026-05-08 23:27 | 41.34325 | 11.92846 | 35063 ft | 534 kts | 130° |
| 2026-05-08 23:27 | 41.29813 | 12.00726 | 35063 ft | 535 kts | 130° |
| 2026-05-08 23:28 | 41.26098 | 12.07290 | 35059 ft | 535 kts | 129° |
| 2026-05-08 23:28 | 41.20974 | 12.16578 | 35062 ft | 536 kts | 129° |
| 2026-05-08 23:29 | 41.16568 | 12.24550 | 35064 ft | 536 kts | 129° |
| 2026-05-08 23:29 | 41.12883 | 12.31174 | 35066 ft | 536 kts | 130° |
| 2026-05-08 23:30 | 41.08437 | 12.39127 | 35067 ft | 537 kts | 130° |
| 2026-05-08 23:30 | 41.03981 | 12.47077 | 35068 ft | 538 kts | 130° |
| 2026-05-08 23:31 | 40.99510 | 12.55033 | 35082 ft | 538 kts | 130° |
| 2026-05-08 23:31 | 40.95036 | 12.62976 | 35083 ft | 539 kts | 130° |
| 2026-05-08 23:32 | 40.90576 | 12.70875 | 35061 ft | 539 kts | 130° |
| 2026-05-08 23:32 | 40.86076 | 12.78823 | 35073 ft | 539 kts | 130° |
| 2026-05-08 23:33 | 40.81569 | 12.86763 | 35072 ft | 540 kts | 130° |
| 2026-05-08 23:33 | 40.77054 | 12.94696 | 35066 ft | 541 kts | 130° |
| 2026-05-08 23:34 | 40.72533 | 13.02619 | 35070 ft | 541 kts | 130° |
| 2026-05-08 23:34 | 40.67999 | 13.10546 | 35068 ft | 542 kts | 131° |
| 2026-05-08 23:35 | 40.63447 | 13.18482 | 35070 ft | 543 kts | 131° |
| 2026-05-08 23:35 | 40.58880 | 13.26426 | 35067 ft | 544 kts | 131° |
| 2026-05-08 23:36 | 40.54337 | 13.34308 | 35067 ft | 544 kts | 131° |
| 2026-05-08 23:36 | 40.49754 | 13.42238 | 35066 ft | 545 kts | 131° |
| 2026-05-08 23:37 | 40.45161 | 13.50166 | 35065 ft | 546 kts | 131° |
| 2026-05-08 23:37 | 40.40554 | 13.58099 | 35061 ft | 547 kts | 131° |
| 2026-05-08 23:38 | 40.35932 | 13.66035 | 35059 ft | 548 kts | 131° |
| 2026-05-08 23:38 | 40.31292 | 13.73983 | 35062 ft | 550 kts | 132° |
| 2026-05-08 23:39 | 40.26634 | 13.81941 | 35058 ft | 551 kts | 132° |
| 2026-05-08 23:39 | 40.21953 | 13.89919 | 35055 ft | 551 kts | 132° |
| 2026-05-08 23:40 | 40.17273 | 13.97874 | 35060 ft | 552 kts | 132° |
| 2026-05-08 23:40 | 40.12608 | 14.05784 | 35058 ft | 553 kts | 132° |
| 2026-05-08 23:41 | 40.07899 | 14.13749 | 35060 ft | 555 kts | 133° |
| 2026-05-08 23:41 | 40.03171 | 14.21724 | 35050 ft | 556 kts | 133° |
| 2026-05-08 23:42 | 39.98418 | 14.29721 | 35063 ft | 557 kts | 133° |
| 2026-05-08 23:42 | 39.93660 | 14.37708 | 35062 ft | 558 kts | 133° |
| 2026-05-08 23:43 | 39.88887 | 14.45699 | 35061 ft | 559 kts | 133° |
| 2026-05-08 23:43 | 39.84100 | 14.53690 | 35062 ft | 560 kts | 133° |
| 2026-05-08 23:44 | 39.79294 | 14.61686 | 35059 ft | 561 kts | 133° |
| 2026-05-08 23:44 | 39.74504 | 14.69636 | 35057 ft | 563 kts | 134° |
| 2026-05-08 23:45 | 39.69661 | 14.77654 | 35061 ft | 564 kts | 134° |
| 2026-05-08 23:45 | 39.64807 | 14.85671 | 35057 ft | 565 kts | 134° |
| 2026-05-08 23:46 | 39.59929 | 14.93708 | 35059 ft | 566 kts | 134° |
| 2026-05-08 23:46 | 39.55076 | 15.01683 | 35061 ft | 567 kts | 134° |
| 2026-05-08 23:47 | 39.50144 | 15.09767 | 35061 ft | 568 kts | 134° |
| 2026-05-08 23:47 | 39.45276 | 15.17727 | 35066 ft | 569 kts | 134° |
| 2026-05-08 23:48 | 39.40346 | 15.25765 | 35066 ft | 570 kts | 134° |
| 2026-05-08 23:48 | 39.35412 | 15.33791 | 35069 ft | 571 kts | 134° |
| 2026-05-08 23:49 | 39.30465 | 15.41820 | 35072 ft | 571 kts | 134° |
| 2026-05-08 23:49 | 39.25510 | 15.49840 | 35076 ft | 571 kts | 134° |
| 2026-05-08 23:50 | 39.20555 | 15.57839 | 35078 ft | 571 kts | 134° |
| 2026-05-08 23:50 | 39.15587 | 15.65840 | 35080 ft | 571 kts | 135° |
| 2026-05-08 23:51 | 39.10614 | 15.73828 | 35080 ft | 572 kts | 135° |
| 2026-05-08 23:51 | 39.05662 | 15.81762 | 35074 ft | 572 kts | 135° |
| 2026-05-08 23:52 | 39.00674 | 15.89736 | 35069 ft | 571 kts | 135° |
| 2026-05-08 23:52 | 38.95691 | 15.97681 | 35060 ft | 570 kts | 135° |
| 2026-05-08 23:53 | 38.90708 | 16.05607 | 35047 ft | 570 kts | 135° |
| 2026-05-08 23:53 | 38.85723 | 16.13514 | 35051 ft | 570 kts | 135° |
| 2026-05-08 23:54 | 38.80730 | 16.21414 | 35046 ft | 569 kts | 135° |
| 2026-05-08 23:55 | 38.73240 | 16.33232 | 35057 ft | 569 kts | 135° |
| 2026-05-08 23:55 | 38.68249 | 16.41084 | 35061 ft | 568 kts | 135° |
| 2026-05-08 23:56 | 38.63250 | 16.48926 | 35068 ft | 569 kts | 134° |
| 2026-05-08 23:56 | 38.58249 | 16.56754 | 35060 ft | 569 kts | 135° |
| 2026-05-08 23:57 | 38.53268 | 16.64532 | 35054 ft | 568 kts | 135° |
| 2026-05-08 23:57 | 38.48268 | 16.72319 | 35055 ft | 567 kts | 135° |
| 2026-05-08 23:58 | 38.43258 | 16.80102 | 35051 ft | 567 kts | 135° |
| 2026-05-08 23:58 | 38.38248 | 16.87867 | 35048 ft | 566 kts | 135° |
| 2026-05-08 23:59 | 38.33242 | 16.95610 | 35045 ft | 566 kts | 134° |
| 2026-05-08 23:59 | 38.28231 | 17.03339 | 35043 ft | 566 kts | 134° |
| 2026-05-09 00:00 | 38.23218 | 17.11053 | 35042 ft | 565 kts | 134° |
| 2026-05-09 00:00 | 38.18206 | 17.18749 | 35044 ft | 565 kts | 134° |
| 2026-05-09 00:01 | 38.13190 | 17.26432 | 35044 ft | 564 kts | 134° |
| 2026-05-09 00:01 | 38.08207 | 17.34046 | 35046 ft | 564 kts | 134° |
| 2026-05-09 00:02 | 38.03191 | 17.41692 | 35046 ft | 564 kts | 134° |
| 2026-05-09 00:02 | 37.98168 | 17.49331 | 35039 ft | 563 kts | 134° |
| 2026-05-09 00:03 | 37.93151 | 17.56945 | 35038 ft | 562 kts | 134° |
| 2026-05-09 00:03 | 37.88132 | 17.64543 | 35041 ft | 562 kts | 134° |
| 2026-05-09 00:04 | 37.83108 | 17.72129 | 35043 ft | 562 kts | 134° |
| 2026-05-09 00:04 | 37.78080 | 17.79704 | 35043 ft | 562 kts | 134° |
| 2026-05-09 00:05 | 37.73046 | 17.87272 | 35043 ft | 561 kts | 134° |
| 2026-05-09 00:05 | 37.68052 | 17.94763 | 35041 ft | 561 kts | 134° |
| 2026-05-09 00:06 | 37.63017 | 18.02296 | 35042 ft | 561 kts | 134° |
| 2026-05-09 00:06 | 37.57984 | 18.09809 | 35041 ft | 561 kts | 134° |
| 2026-05-09 00:07 | 37.52941 | 18.17320 | 35045 ft | 561 kts | 134° |
| 2026-05-09 00:07 | 37.47894 | 18.24820 | 35045 ft | 561 kts | 134° |
| 2026-05-09 00:08 | 37.42843 | 18.32309 | 35044 ft | 561 kts | 134° |
| 2026-05-09 00:08 | 37.37787 | 18.39789 | 35049 ft | 561 kts | 134° |
| 2026-05-09 00:09 | 37.32724 | 18.47261 | 35046 ft | 561 kts | 134° |
| 2026-05-09 00:09 | 37.27663 | 18.54714 | 35044 ft | 561 kts | 134° |
| 2026-05-09 00:10 | 37.22600 | 18.62153 | 35045 ft | 560 kts | 134° |
| 2026-05-09 00:10 | 37.17531 | 18.69583 | 35049 ft | 560 kts | 134° |
| 2026-05-09 00:11 | 37.12457 | 18.77005 | 35051 ft | 560 kts | 134° |
| 2026-05-09 00:11 | 37.07379 | 18.84415 | 35050 ft | 560 kts | 134° |
| 2026-05-09 00:12 | 37.02303 | 18.91805 | 35054 ft | 560 kts | 134° |
| 2026-05-09 00:12 | 36.97261 | 18.99243 | 35052 ft | 562 kts | 130° |
| 2026-05-09 00:13 | 36.92909 | 19.07367 | 35056 ft | 564 kts | 125° |
| 2026-05-09 00:13 | 36.88748 | 19.15620 | 35056 ft | 564 kts | 124° |
| 2026-05-09 00:14 | 36.84591 | 19.23918 | 35059 ft | 564 kts | 124° |
| 2026-05-09 00:14 | 36.80411 | 19.32204 | 35058 ft | 563 kts | 124° |
| 2026-05-09 00:15 | 36.76221 | 19.40459 | 35056 ft | 563 kts | 124° |
| 2026-05-09 00:15 | 36.72026 | 19.48697 | 35056 ft | 562 kts | 124° |
| 2026-05-09 00:16 | 36.68537 | 19.55535 | 35058 ft | 562 kts | 124° |
| 2026-05-09 00:16 | 36.64333 | 19.63756 | 35065 ft | 562 kts | 124° |
| 2026-05-09 00:17 | 36.60133 | 19.71950 | 35064 ft | 561 kts | 124° |
| 2026-05-09 00:17 | 36.55927 | 19.80138 | 35065 ft | 561 kts | 124° |
| 2026-05-09 00:18 | 36.51718 | 19.88309 | 35063 ft | 561 kts | 124° |
| 2026-05-09 00:18 | 36.47533 | 19.96416 | 35060 ft | 560 kts | 124° |
| 2026-05-09 00:19 | 36.43316 | 20.04565 | 35062 ft | 560 kts | 124° |
| 2026-05-09 00:19 | 36.39100 | 20.12692 | 35063 ft | 560 kts | 124° |
| 2026-05-09 00:20 | 36.34882 | 20.20804 | 35063 ft | 559 kts | 124° |
| 2026-05-09 00:20 | 36.30655 | 20.28914 | 35063 ft | 559 kts | 124° |
| 2026-05-09 00:21 | 36.26426 | 20.37007 | 35066 ft | 559 kts | 124° |
| 2026-05-09 00:21 | 36.22221 | 20.45037 | 35064 ft | 558 kts | 124° |
| 2026-05-09 00:22 | 36.17989 | 20.53098 | 35067 ft | 558 kts | 124° |
| 2026-05-09 00:22 | 36.13752 | 20.61150 | 35068 ft | 558 kts | 124° |
| 2026-05-09 00:23 | 36.09518 | 20.69178 | 35067 ft | 557 kts | 124° |
| 2026-05-09 00:23 | 36.05275 | 20.77204 | 35063 ft | 557 kts | 124° |
| 2026-05-09 00:24 | 36.01041 | 20.85196 | 35058 ft | 556 kts | 124° |
| 2026-05-09 00:24 | 35.96795 | 20.93191 | 35070 ft | 556 kts | 124° |
| 2026-05-09 00:25 | 35.92559 | 21.01147 | 35072 ft | 555 kts | 124° |
| 2026-05-09 00:25 | 35.88313 | 21.09105 | 35067 ft | 554 kts | 124° |
| 2026-05-09 00:26 | 35.84105 | 21.16973 | 35071 ft | 553 kts | 124° |
| 2026-05-09 00:26 | 35.79867 | 21.24880 | 35071 ft | 552 kts | 124° |
| 2026-05-09 00:27 | 35.75636 | 21.32755 | 35073 ft | 551 kts | 124° |
| 2026-05-09 00:27 | 35.71404 | 21.40612 | 35070 ft | 550 kts | 124° |
| 2026-05-09 00:28 | 35.67179 | 21.48441 | 35071 ft | 549 kts | 124° |
| 2026-05-09 00:28 | 35.62956 | 21.56247 | 35074 ft | 548 kts | 124° |
| 2026-05-09 00:29 | 35.58735 | 21.64033 | 35074 ft | 547 kts | 124° |
| 2026-05-09 00:29 | 35.54513 | 21.71803 | 35069 ft | 546 kts | 124° |
| 2026-05-09 00:30 | 35.50295 | 21.79549 | 35073 ft | 545 kts | 124° |
| 2026-05-09 00:30 | 35.46074 | 21.87284 | 35071 ft | 544 kts | 124° |
| 2026-05-09 00:31 | 35.41861 | 21.94985 | 35069 ft | 544 kts | 124° |
| 2026-05-09 00:31 | 35.37669 | 22.02633 | 35071 ft | 543 kts | 124° |
| 2026-05-09 00:32 | 35.33430 | 22.10349 | 35072 ft | 543 kts | 124° |
| 2026-05-09 00:32 | 35.29210 | 22.18014 | 35072 ft | 542 kts | 124° |
| 2026-05-09 00:33 | 35.25021 | 22.25606 | 35071 ft | 541 kts | 125° |
| 2026-05-09 00:33 | 35.20803 | 22.33233 | 35072 ft | 541 kts | 125° |
| 2026-05-09 00:34 | 35.16584 | 22.40846 | 35074 ft | 541 kts | 125° |
| 2026-05-09 00:34 | 35.12359 | 22.48452 | 35075 ft | 540 kts | 125° |
| 2026-05-09 00:35 | 35.08136 | 22.56041 | 35075 ft | 540 kts | 125° |
| 2026-05-09 00:35 | 35.03906 | 22.63623 | 35075 ft | 540 kts | 125° |
| 2026-05-09 00:36 | 34.99675 | 22.71193 | 35076 ft | 539 kts | 125° |
| 2026-05-09 00:36 | 34.95440 | 22.78752 | 35083 ft | 539 kts | 125° |
| 2026-05-09 00:37 | 34.91230 | 22.86250 | 35085 ft | 539 kts | 125° |
| 2026-05-09 00:37 | 34.86998 | 22.93774 | 35088 ft | 538 kts | 125° |
| 2026-05-09 00:38 | 34.82754 | 23.01301 | 35090 ft | 538 kts | 126° |
| 2026-05-09 00:38 | 34.78515 | 23.08803 | 35092 ft | 538 kts | 126° |
| 2026-05-09 00:39 | 34.74265 | 23.16309 | 35093 ft | 538 kts | 126° |
| 2026-05-09 00:39 | 34.70020 | 23.23791 | 35094 ft | 538 kts | 126° |
| 2026-05-09 00:40 | 34.65768 | 23.31270 | 35095 ft | 538 kts | 126° |
| 2026-05-09 00:40 | 34.61515 | 23.38734 | 35097 ft | 537 kts | 126° |
| 2026-05-09 00:41 | 34.55152 | 23.49872 | 35102 ft | 537 kts | 126° |
| 2026-05-09 00:41 | 34.50892 | 23.57311 | 35103 ft | 537 kts | 126° |
| 2026-05-09 00:42 | 34.46625 | 23.64744 | 35100 ft | 537 kts | 126° |
| 2026-05-09 00:42 | 34.42354 | 23.72170 | 35099 ft | 536 kts | 126° |
| 2026-05-09 00:43 | 34.38086 | 23.79575 | 35103 ft | 536 kts | 126° |
| 2026-05-09 00:43 | 34.33818 | 23.86965 | 35103 ft | 536 kts | 126° |
| 2026-05-09 00:44 | 34.29540 | 23.94358 | 35105 ft | 535 kts | 126° |
| 2026-05-09 00:44 | 34.25263 | 24.01733 | 35110 ft | 535 kts | 126° |
| 2026-05-09 00:45 | 34.20983 | 24.09099 | 35106 ft | 535 kts | 126° |
| 2026-05-09 00:45 | 34.16731 | 24.16401 | 35105 ft | 535 kts | 126° |
| 2026-05-09 00:46 | 34.12418 | 24.23794 | 35108 ft | 535 kts | 126° |
| 2026-05-09 00:46 | 34.08158 | 24.31080 | 35107 ft | 535 kts | 126° |
| 2026-05-09 00:47 | 34.03870 | 24.38400 | 35106 ft | 534 kts | 126° |
| 2026-05-09 00:47 | 33.99017 | 24.45113 | 35107 ft | 529 kts | 142° |
| 2026-05-09 00:48 | 33.92919 | 24.49974 | 35107 ft | 524 kts | 153° |
| 2026-05-09 00:48 | 33.86575 | 24.54304 | 35104 ft | 523 kts | 154° |
| 2026-05-09 00:49 | 33.80220 | 24.58567 | 35104 ft | 522 kts | 154° |
| 2026-05-09 00:49 | 33.73898 | 24.62843 | 35103 ft | 521 kts | 154° |
| 2026-05-09 00:50 | 33.67600 | 24.67127 | 35106 ft | 519 kts | 154° |
| 2026-05-09 00:50 | 33.61311 | 24.71405 | 35109 ft | 518 kts | 154° |
| 2026-05-09 00:51 | 33.55041 | 24.75662 | 35106 ft | 518 kts | 154° |
| 2026-05-09 00:51 | 33.48803 | 24.79888 | 35119 ft | 518 kts | 155° |
| 2026-05-09 00:52 | 33.42529 | 24.84130 | 35117 ft | 517 kts | 155° |
| 2026-05-09 00:52 | 33.36254 | 24.88367 | 35099 ft | 517 kts | 155° |
| 2026-05-09 00:53 | 33.29981 | 24.92594 | 35113 ft | 518 kts | 155° |
| 2026-05-09 00:53 | 33.23696 | 24.96822 | 35109 ft | 518 kts | 155° |
| 2026-05-09 00:54 | 33.17417 | 25.01039 | 35104 ft | 518 kts | 155° |
| 2026-05-09 00:54 | 33.11175 | 25.05225 | 35106 ft | 518 kts | 155° |
| 2026-05-09 00:55 | 33.04896 | 25.09429 | 35114 ft | 517 kts | 155° |
| 2026-05-09 00:55 | 32.98620 | 25.13623 | 35107 ft | 517 kts | 155° |
| 2026-05-09 00:56 | 32.92343 | 25.17811 | 35108 ft | 517 kts | 155° |
| 2026-05-09 00:56 | 32.86074 | 25.21987 | 35104 ft | 517 kts | 155° |
| 2026-05-09 00:57 | 32.79799 | 25.26159 | 35107 ft | 516 kts | 155° |
| 2026-05-09 00:57 | 32.73518 | 25.30330 | 35106 ft | 516 kts | 155° |
| 2026-05-09 00:58 | 32.67237 | 25.34494 | 35104 ft | 517 kts | 155° |
| 2026-05-09 00:58 | 32.60963 | 25.38647 | 35099 ft | 517 kts | 155° |
| 2026-05-09 00:59 | 32.54674 | 25.42804 | 35095 ft | 517 kts | 155° |
| 2026-05-09 00:59 | 32.48387 | 25.46951 | 35091 ft | 518 kts | 155° |
| 2026-05-09 01:00 | 32.42094 | 25.51097 | 35084 ft | 518 kts | 155° |
| 2026-05-09 01:00 | 32.35795 | 25.55239 | 35080 ft | 518 kts | 155° |
| 2026-05-09 01:01 | 32.29489 | 25.59379 | 35072 ft | 518 kts | 156° |
| 2026-05-09 01:01 | 32.23231 | 25.63482 | 35074 ft | 518 kts | 156° |
| 2026-05-09 01:02 | 32.16932 | 25.67604 | 35074 ft | 517 kts | 156° |
| 2026-05-09 01:02 | 32.11658 | 25.71050 | 35066 ft | 517 kts | 156° |
| 2026-05-09 01:03 | 32.05370 | 25.75153 | 35062 ft | 517 kts | 156° |
| 2026-05-09 01:03 | 31.99068 | 25.79259 | 35062 ft | 517 kts | 156° |
| 2026-05-09 01:04 | 31.92766 | 25.83357 | 35059 ft | 517 kts | 156° |
| 2026-05-09 01:04 | 31.86502 | 25.87425 | 35060 ft | 517 kts | 156° |
| 2026-05-09 01:05 | 31.80202 | 25.91511 | 35060 ft | 518 kts | 156° |
| 2026-05-09 01:06 | 31.70729 | 25.97641 | 35058 ft | 518 kts | 156° |
| 2026-05-09 01:06 | 31.64415 | 26.01719 | 35064 ft | 518 kts | 156° |
| 2026-05-09 01:07 | 31.58108 | 26.05787 | 35067 ft | 518 kts | 156° |
| 2026-05-09 01:07 | 31.51787 | 26.09857 | 35072 ft | 518 kts | 156° |
| 2026-05-09 01:08 | 31.45456 | 26.13927 | 35078 ft | 518 kts | 156° |
| 2026-05-09 01:08 | 31.39136 | 26.17984 | 35087 ft | 518 kts | 156° |
| 2026-05-09 01:09 | 31.32858 | 26.22008 | 35105 ft | 518 kts | 156° |
| 2026-05-09 01:09 | 31.26530 | 26.26057 | 35110 ft | 518 kts | 156° |
| 2026-05-09 01:10 | 31.20209 | 26.30096 | 35118 ft | 518 kts | 156° |
| 2026-05-09 01:10 | 31.13887 | 26.34129 | 35130 ft | 518 kts | 156° |
| 2026-05-09 01:11 | 31.07558 | 26.38160 | 35138 ft | 518 kts | 156° |
| 2026-05-09 01:11 | 31.01235 | 26.42181 | 35145 ft | 518 kts | 156° |
| 2026-05-09 01:12 | 30.94924 | 26.46189 | 35153 ft | 518 kts | 156° |
| 2026-05-09 01:12 | 30.88584 | 26.50209 | 35157 ft | 518 kts | 156° |
| 2026-05-09 01:13 | 30.82249 | 26.54220 | 35156 ft | 518 kts | 156° |
| 2026-05-09 01:13 | 30.75901 | 26.58233 | 35159 ft | 518 kts | 156° |
| 2026-05-09 01:14 | 30.69578 | 26.62223 | 35160 ft | 517 kts | 156° |
| 2026-05-09 01:14 | 30.63259 | 26.66206 | 35165 ft | 516 kts | 156° |
| 2026-05-09 01:15 | 30.56946 | 26.70179 | 35163 ft | 515 kts | 155° |
| 2026-05-09 01:15 | 30.50634 | 26.74145 | 35159 ft | 514 kts | 155° |
| 2026-05-09 01:16 | 30.44386 | 26.78065 | 35155 ft | 514 kts | 155° |
| 2026-05-09 01:16 | 30.38105 | 26.82000 | 35168 ft | 513 kts | 155° |
| 2026-05-09 01:17 | 30.28689 | 26.87889 | 35155 ft | 512 kts | 155° |
| 2026-05-09 01:17 | 30.22408 | 26.91810 | 35154 ft | 511 kts | 155° |
| 2026-05-09 01:18 | 30.16147 | 26.95713 | 35151 ft | 511 kts | 155° |
| 2026-05-09 01:18 | 30.09894 | 26.99605 | 35143 ft | 510 kts | 156° |
| 2026-05-09 01:19 | 30.03647 | 27.03487 | 35143 ft | 510 kts | 156° |
| 2026-05-09 01:19 | 29.97443 | 27.07336 | 35135 ft | 510 kts | 156° |
| 2026-05-09 01:20 | 29.91193 | 27.11209 | 35133 ft | 509 kts | 156° |
| 2026-05-09 01:20 | 29.84944 | 27.15075 | 35133 ft | 509 kts | 156° |
| 2026-05-09 01:21 | 29.78699 | 27.18935 | 35128 ft | 509 kts | 156° |
| 2026-05-09 01:21 | 29.72461 | 27.22784 | 35126 ft | 509 kts | 156° |
| 2026-05-09 01:22 | 29.66211 | 27.26634 | 35121 ft | 508 kts | 155° |
| 2026-05-09 01:22 | 29.59981 | 27.30468 | 35116 ft | 508 kts | 155° |
| 2026-05-09 01:23 | 29.53788 | 27.34272 | 35122 ft | 508 kts | 155° |
| 2026-05-09 01:23 | 29.47556 | 27.38097 | 35115 ft | 508 kts | 155° |
| 2026-05-09 01:24 | 29.41322 | 27.41916 | 35113 ft | 507 kts | 155° |
| 2026-05-09 01:24 | 29.35094 | 27.45726 | 35106 ft | 508 kts | 155° |
| 2026-05-09 01:25 | 29.28856 | 27.49538 | 35106 ft | 508 kts | 155° |
| 2026-05-09 01:25 | 29.22618 | 27.53344 | 35105 ft | 508 kts | 155° |
| 2026-05-09 01:26 | 29.16376 | 27.57148 | 35104 ft | 508 kts | 155° |
| 2026-05-09 01:26 | 29.10131 | 27.60948 | 35097 ft | 508 kts | 155° |
| 2026-05-09 01:27 | 29.03891 | 27.64740 | 35097 ft | 508 kts | 155° |
| 2026-05-09 01:27 | 28.97646 | 27.68529 | 35099 ft | 508 kts | 155° |
| 2026-05-09 01:28 | 28.91412 | 27.72307 | 35099 ft | 507 kts | 155° |
| 2026-05-09 01:28 | 28.85215 | 27.76056 | 35087 ft | 507 kts | 155° |
| 2026-05-09 01:29 | 28.78978 | 27.79826 | 35086 ft | 507 kts | 155° |
| 2026-05-09 01:29 | 28.72743 | 27.83588 | 35102 ft | 507 kts | 155° |
| 2026-05-09 01:30 | 28.66506 | 27.87347 | 35096 ft | 506 kts | 155° |
| 2026-05-09 01:30 | 28.60270 | 27.91101 | 35090 ft | 506 kts | 155° |
| 2026-05-09 01:31 | 28.54040 | 27.94845 | 35089 ft | 506 kts | 155° |
| 2026-05-09 01:31 | 28.47869 | 27.98548 | 35093 ft | 505 kts | 155° |
| 2026-05-09 01:32 | 28.41638 | 28.02283 | 35089 ft | 505 kts | 155° |
| 2026-05-09 01:32 | 28.35412 | 28.06010 | 35086 ft | 505 kts | 155° |
| 2026-05-09 01:33 | 28.29198 | 28.09725 | 35086 ft | 505 kts | 155° |
| 2026-05-09 01:33 | 28.22982 | 28.13437 | 35087 ft | 505 kts | 155° |
| 2026-05-09 01:34 | 28.16769 | 28.17140 | 35089 ft | 504 kts | 155° |
| 2026-05-09 01:34 | 28.10556 | 28.20840 | 35086 ft | 504 kts | 155° |
| 2026-05-09 01:35 | 28.04340 | 28.24537 | 35089 ft | 504 kts | 155° |
| 2026-05-09 01:35 | 27.98114 | 28.28234 | 35084 ft | 504 kts | 155° |
| 2026-05-09 01:36 | 27.91897 | 28.31922 | 35085 ft | 504 kts | 155° |
| 2026-05-09 01:36 | 27.85723 | 28.35578 | 35084 ft | 504 kts | 155° |
| 2026-05-09 01:37 | 27.79514 | 28.39252 | 35086 ft | 504 kts | 155° |
| 2026-05-09 01:37 | 27.73306 | 28.42919 | 35085 ft | 504 kts | 155° |
| 2026-05-09 01:38 | 27.67092 | 28.46585 | 35085 ft | 504 kts | 155° |
| 2026-05-09 01:38 | 27.60880 | 28.50246 | 35083 ft | 503 kts | 155° |
| 2026-05-09 01:39 | 27.54666 | 28.53902 | 35082 ft | 503 kts | 155° |
| 2026-05-09 01:39 | 27.48457 | 28.57552 | 35087 ft | 503 kts | 155° |
| 2026-05-09 01:40 | 27.42251 | 28.61194 | 35076 ft | 503 kts | 155° |
| 2026-05-09 01:40 | 27.36037 | 28.64837 | 35076 ft | 503 kts | 155° |
| 2026-05-09 01:41 | 27.29822 | 28.68475 | 35081 ft | 504 kts | 155° |
| 2026-05-09 01:41 | 27.23605 | 28.72111 | 35082 ft | 503 kts | 155° |
| 2026-05-09 01:42 | 27.17387 | 28.75742 | 35081 ft | 504 kts | 155° |
| 2026-05-09 01:42 | 27.11214 | 28.79343 | 35080 ft | 504 kts | 155° |
| 2026-05-09 01:43 | 27.04987 | 28.82970 | 35081 ft | 504 kts | 155° |
| 2026-05-09 01:43 | 26.98757 | 28.86595 | 35082 ft | 504 kts | 155° |
| 2026-05-09 01:44 | 26.92519 | 28.90219 | 35078 ft | 505 kts | 155° |
| 2026-05-09 01:44 | 26.86274 | 28.93843 | 35073 ft | 505 kts | 155° |
| 2026-05-09 01:45 | 26.80025 | 28.97466 | 35073 ft | 506 kts | 155° |
| 2026-05-09 01:45 | 26.73812 | 29.01062 | 35072 ft | 506 kts | 155° |
| 2026-05-09 01:46 | 26.67561 | 29.04676 | 35069 ft | 506 kts | 155° |
| 2026-05-09 01:46 | 26.61302 | 29.08291 | 35067 ft | 506 kts | 155° |
| 2026-05-09 01:47 | 26.55042 | 29.11901 | 35064 ft | 506 kts | 155° |
| 2026-05-09 01:47 | 26.48779 | 29.15509 | 35064 ft | 507 kts | 154° |
| 2026-05-09 01:48 | 26.42504 | 29.19119 | 35062 ft | 507 kts | 154° |
| 2026-05-09 01:48 | 26.37292 | 29.22114 | 35060 ft | 507 kts | 154° |
| 2026-05-09 01:49 | 26.31020 | 29.25715 | 35057 ft | 507 kts | 154° |
| 2026-05-09 01:49 | 26.23713 | 29.29903 | 35055 ft | 508 kts | 154° |
| 2026-05-09 01:50 | 26.18453 | 29.32915 | 35057 ft | 508 kts | 154° |
| 2026-05-09 01:50 | 26.12213 | 29.36484 | 35052 ft | 508 kts | 154° |
| 2026-05-09 01:51 | 26.05921 | 29.40079 | 35051 ft | 508 kts | 154° |
| 2026-05-09 01:51 | 25.99620 | 29.43673 | 35049 ft | 508 kts | 154° |
| 2026-05-09 01:52 | 25.93312 | 29.47268 | 35048 ft | 509 kts | 154° |
| 2026-05-09 01:52 | 25.87022 | 29.50848 | 35043 ft | 509 kts | 154° |
| 2026-05-09 01:53 | 25.80718 | 29.54432 | 35040 ft | 509 kts | 154° |
| 2026-05-09 01:53 | 25.74408 | 29.58015 | 35039 ft | 509 kts | 155° |
| 2026-05-09 01:54 | 25.68096 | 29.61594 | 35038 ft | 509 kts | 155° |
| 2026-05-09 01:54 | 25.61780 | 29.65173 | 35030 ft | 509 kts | 155° |
| 2026-05-09 01:55 | 25.55465 | 29.68745 | 35037 ft | 509 kts | 155° |
| 2026-05-09 01:55 | 25.49186 | 29.72294 | 35023 ft | 510 kts | 155° |
| 2026-05-09 01:56 | 25.42862 | 29.75863 | 35021 ft | 510 kts | 155° |
| 2026-05-09 01:56 | 25.36536 | 29.79429 | 35019 ft | 510 kts | 155° |
| 2026-05-09 01:57 | 25.30214 | 29.82989 | 35016 ft | 509 kts | 155° |
| 2026-05-09 01:57 | 25.23899 | 29.86540 | 35008 ft | 509 kts | 155° |
| 2026-05-09 01:58 | 25.17589 | 29.90085 | 35005 ft | 509 kts | 155° |
| 2026-05-09 01:58 | 25.11270 | 29.93631 | 35003 ft | 509 kts | 155° |
| 2026-05-09 01:59 | 25.04963 | 29.97165 | 34997 ft | 509 kts | 155° |
| 2026-05-09 01:59 | 24.98685 | 30.00680 | 34993 ft | 508 kts | 155° |
| 2026-05-09 02:00 | 24.92374 | 30.04208 | 34991 ft | 508 kts | 155° |
| 2026-05-09 02:00 | 24.86066 | 30.07732 | 34983 ft | 508 kts | 155° |
| 2026-05-09 02:01 | 24.79761 | 30.11249 | 34982 ft | 508 kts | 155° |
| 2026-05-09 02:01 | 24.73456 | 30.14762 | 34984 ft | 508 kts | 155° |
| 2026-05-09 02:02 | 24.67152 | 30.18271 | 34985 ft | 507 kts | 155° |
| 2026-05-09 02:02 | 24.60859 | 30.21769 | 34983 ft | 507 kts | 155° |
| 2026-05-09 02:03 | 24.54564 | 30.25266 | 34977 ft | 506 kts | 155° |
| 2026-05-09 02:03 | 24.48272 | 30.28756 | 34974 ft | 506 kts | 155° |
| 2026-05-09 02:04 | 24.42026 | 30.32217 | 34972 ft | 506 kts | 155° |
| 2026-05-09 02:04 | 24.35744 | 30.35693 | 34976 ft | 506 kts | 155° |
| 2026-05-09 02:05 | 24.29459 | 30.39168 | 34972 ft | 505 kts | 155° |
| 2026-05-09 02:05 | 24.23179 | 30.42635 | 34972 ft | 505 kts | 155° |
| 2026-05-09 02:06 | 24.16897 | 30.46101 | 34969 ft | 505 kts | 155° |
| 2026-05-09 02:07 | 24.07459 | 30.51299 | 34969 ft | 505 kts | 155° |
| 2026-05-09 02:07 | 24.01209 | 30.54737 | 34966 ft | 505 kts | 155° |
| 2026-05-09 02:08 | 23.94923 | 30.58191 | 34965 ft | 505 kts | 155° |
| 2026-05-09 02:08 | 23.88640 | 30.61640 | 34959 ft | 505 kts | 155° |
| 2026-05-09 02:09 | 23.82364 | 30.65081 | 34959 ft | 505 kts | 155° |
| 2026-05-09 02:09 | 23.76076 | 30.68525 | 34962 ft | 505 kts | 155° |
| 2026-05-09 02:10 | 23.69799 | 30.71958 | 34957 ft | 505 kts | 155° |
| 2026-05-09 02:10 | 23.63517 | 30.75391 | 34956 ft | 505 kts | 155° |
| 2026-05-09 02:11 | 23.57237 | 30.78820 | 34953 ft | 504 kts | 155° |
| 2026-05-09 02:11 | 23.50963 | 30.82241 | 34963 ft | 505 kts | 155° |
| 2026-05-09 02:12 | 23.44679 | 30.85664 | 34947 ft | 504 kts | 155° |
| 2026-05-09 02:12 | 23.38391 | 30.89086 | 34945 ft | 505 kts | 155° |
| 2026-05-09 02:13 | 23.32147 | 30.92480 | 34939 ft | 505 kts | 155° |
| 2026-05-09 02:13 | 23.25866 | 30.95891 | 34938 ft | 505 kts | 155° |
| 2026-05-09 02:14 | 23.19584 | 30.99298 | 34950 ft | 505 kts | 155° |
| 2026-05-09 02:14 | 23.13297 | 31.02704 | 34947 ft | 505 kts | 155° |
| 2026-05-09 02:15 | 23.07011 | 31.06107 | 34941 ft | 504 kts | 155° |
| 2026-05-09 02:15 | 23.00731 | 31.09503 | 34938 ft | 504 kts | 155° |
| 2026-05-09 02:16 | 22.94430 | 31.12906 | 34931 ft | 504 kts | 155° |
| 2026-05-09 02:16 | 22.88150 | 31.16295 | 34936 ft | 504 kts | 155° |
| 2026-05-09 02:17 | 22.81865 | 31.19682 | 34932 ft | 504 kts | 155° |
| 2026-05-09 02:17 | 22.75623 | 31.23044 | 34932 ft | 504 kts | 155° |
| 2026-05-09 02:18 | 22.69345 | 31.26421 | 34933 ft | 504 kts | 155° |
| 2026-05-09 02:18 | 22.63068 | 31.29794 | 34929 ft | 504 kts | 155° |
| 2026-05-09 02:19 | 22.56782 | 31.33168 | 34923 ft | 503 kts | 155° |
| 2026-05-09 02:19 | 22.50507 | 31.36533 | 34921 ft | 503 kts | 155° |
| 2026-05-09 02:20 | 22.44233 | 31.39894 | 34913 ft | 503 kts | 155° |
| 2026-05-09 02:20 | 22.37962 | 31.43250 | 34915 ft | 503 kts | 155° |
| 2026-05-09 02:21 | 22.31731 | 31.46581 | 34916 ft | 503 kts | 155° |
| 2026-05-09 02:21 | 22.25449 | 31.49936 | 34915 ft | 503 kts | 155° |
| 2026-05-09 02:22 | 22.19178 | 31.53282 | 34910 ft | 503 kts | 155° |
| 2026-05-09 02:22 | 22.12905 | 31.56626 | 34918 ft | 503 kts | 155° |
| 2026-05-09 02:23 | 22.06624 | 31.59970 | 34920 ft | 503 kts | 155° |
| 2026-05-09 02:23 | 22.00195 | 31.62900 | 34922 ft | 501 kts | 166° |
| 2026-05-09 02:24 | 21.93338 | 31.64004 | 34918 ft | 498 kts | 177° |
| 2026-05-09 02:24 | 21.86458 | 31.64484 | 34919 ft | 498 kts | 178° |
| 2026-05-09 02:25 | 21.79538 | 31.64890 | 34922 ft | 498 kts | 178° |
| 2026-05-09 02:25 | 21.72610 | 31.65321 | 34924 ft | 498 kts | 178° |
| 2026-05-09 02:26 | 21.65683 | 31.65777 | 34924 ft | 499 kts | 178° |
| 2026-05-09 02:26 | 21.58758 | 31.66238 | 34927 ft | 499 kts | 178° |
| 2026-05-09 02:27 | 21.51827 | 31.66699 | 34926 ft | 499 kts | 178° |
| 2026-05-09 02:27 | 21.44896 | 31.67158 | 34930 ft | 499 kts | 178° |
| 2026-05-09 02:28 | 21.37958 | 31.67617 | 34929 ft | 499 kts | 178° |
| 2026-05-09 02:28 | 21.31025 | 31.68075 | 34930 ft | 499 kts | 178° |
| 2026-05-09 02:29 | 21.24087 | 31.68533 | 34930 ft | 499 kts | 178° |
| 2026-05-09 02:29 | 21.17157 | 31.68990 | 34934 ft | 499 kts | 178° |
| 2026-05-09 02:30 | 21.10220 | 31.69447 | 34933 ft | 499 kts | 178° |
| 2026-05-09 02:30 | 21.03276 | 31.69904 | 34932 ft | 499 kts | 178° |
| 2026-05-09 02:31 | 20.96343 | 31.70360 | 34935 ft | 499 kts | 178° |
| 2026-05-09 02:31 | 20.89406 | 31.70816 | 34930 ft | 499 kts | 178° |
| 2026-05-09 02:32 | 20.82511 | 31.71268 | 34931 ft | 499 kts | 178° |
| 2026-05-09 02:32 | 20.75574 | 31.71723 | 34931 ft | 499 kts | 178° |
| 2026-05-09 02:33 | 20.68631 | 31.72179 | 34929 ft | 500 kts | 178° |
| 2026-05-09 02:33 | 20.61690 | 31.72634 | 34929 ft | 500 kts | 178° |
| 2026-05-09 02:34 | 20.54743 | 31.73088 | 34923 ft | 500 kts | 178° |
| 2026-05-09 02:34 | 20.48969 | 31.73465 | 34921 ft | 500 kts | 178° |
| 2026-05-09 02:35 | 20.42020 | 31.73919 | 34921 ft | 500 kts | 178° |
| 2026-05-09 02:35 | 20.35074 | 31.74372 | 34928 ft | 500 kts | 178° |
| 2026-05-09 02:36 | 20.28117 | 31.74825 | 34925 ft | 500 kts | 178° |
| 2026-05-09 02:36 | 20.21158 | 31.75278 | 34924 ft | 500 kts | 178° |
| 2026-05-09 02:37 | 20.14206 | 31.75731 | 34921 ft | 500 kts | 178° |
| 2026-05-09 02:37 | 20.07310 | 31.76179 | 34925 ft | 500 kts | 178° |
| 2026-05-09 02:38 | 20.00303 | 31.76634 | 34923 ft | 500 kts | 178° |
| 2026-05-09 02:38 | 19.93349 | 31.77085 | 34920 ft | 501 kts | 178° |
| 2026-05-09 02:39 | 19.86431 | 31.77534 | 34922 ft | 501 kts | 178° |
| 2026-05-09 02:39 | 19.79468 | 31.77985 | 34922 ft | 501 kts | 178° |
| 2026-05-09 02:40 | 19.72497 | 31.78436 | 34922 ft | 501 kts | 178° |
| 2026-05-09 02:40 | 19.65587 | 31.78883 | 34918 ft | 502 kts | 178° |
| 2026-05-09 02:41 | 19.58569 | 31.79337 | 34919 ft | 502 kts | 178° |
| 2026-05-09 02:41 | 19.51602 | 31.79787 | 34917 ft | 502 kts | 178° |
| 2026-05-09 02:42 | 19.44627 | 31.80237 | 34913 ft | 502 kts | 178° |
| 2026-05-09 02:42 | 19.37650 | 31.80687 | 34911 ft | 502 kts | 178° |
| 2026-05-09 02:43 | 19.30679 | 31.81136 | 34908 ft | 502 kts | 178° |
| 2026-05-09 02:43 | 19.23698 | 31.81585 | 34906 ft | 502 kts | 178° |
| 2026-05-09 02:44 | 19.16778 | 31.82029 | 34905 ft | 502 kts | 178° |
| 2026-05-09 02:44 | 19.09802 | 31.82478 | 34899 ft | 502 kts | 178° |
| 2026-05-09 02:45 | 19.02820 | 31.82925 | 34906 ft | 502 kts | 178° |
| 2026-05-09 02:45 | 18.95848 | 31.83372 | 34897 ft | 501 kts | 178° |
| 2026-05-09 02:46 | 18.89105 | 31.83804 | 34896 ft | 501 kts | 178° |
| 2026-05-09 02:46 | 18.81934 | 31.84263 | 34905 ft | 501 kts | 178° |
| 2026-05-09 02:47 | 18.74978 | 31.84708 | 34902 ft | 501 kts | 178° |
| 2026-05-09 02:47 | 18.68064 | 31.85150 | 34899 ft | 501 kts | 178° |
| 2026-05-09 02:48 | 18.61101 | 31.85594 | 34889 ft | 500 kts | 178° |
| 2026-05-09 02:48 | 18.54151 | 31.86038 | 34891 ft | 500 kts | 178° |
| 2026-05-09 02:49 | 18.47199 | 31.86481 | 34898 ft | 500 kts | 178° |
| 2026-05-09 02:49 | 18.40248 | 31.86924 | 34899 ft | 500 kts | 178° |
| 2026-05-09 02:50 | 18.33305 | 31.87366 | 34894 ft | 500 kts | 178° |
| 2026-05-09 02:50 | 18.26378 | 31.87806 | 34894 ft | 500 kts | 178° |
| 2026-05-09 02:51 | 18.19418 | 31.88249 | 34894 ft | 500 kts | 178° |
| 2026-05-09 02:51 | 18.12472 | 31.88690 | 34894 ft | 500 kts | 178° |
| 2026-05-09 02:52 | 18.05564 | 31.89128 | 34899 ft | 500 kts | 178° |
| 2026-05-09 02:52 | 17.98611 | 31.89569 | 34885 ft | 500 kts | 178° |
| 2026-05-09 02:53 | 17.91673 | 31.90008 | 34892 ft | 499 kts | 178° |
| 2026-05-09 02:53 | 17.84744 | 31.90447 | 34885 ft | 499 kts | 179° |
| 2026-05-09 02:54 | 17.77815 | 31.90885 | 34888 ft | 499 kts | 179° |
| 2026-05-09 02:54 | 17.70883 | 31.91323 | 34894 ft | 498 kts | 179° |
| 2026-05-09 02:55 | 17.63958 | 31.91760 | 34890 ft | 498 kts | 179° |
| 2026-05-09 02:55 | 17.57071 | 31.92195 | 34888 ft | 498 kts | 179° |
| 2026-05-09 02:56 | 17.50153 | 31.92631 | 34888 ft | 498 kts | 179° |
| 2026-05-09 02:56 | 17.43226 | 31.93067 | 34885 ft | 498 kts | 179° |
| 2026-05-09 02:57 | 17.36299 | 31.93503 | 34893 ft | 498 kts | 179° |
| 2026-05-09 02:57 | 17.29381 | 31.93939 | 34888 ft | 498 kts | 179° |
| 2026-05-09 02:58 | 17.22477 | 31.94373 | 34886 ft | 497 kts | 179° |
| 2026-05-09 02:58 | 17.15564 | 31.94807 | 34884 ft | 497 kts | 179° |
| 2026-05-09 02:59 | 17.08672 | 31.95240 | 34881 ft | 496 kts | 179° |
| 2026-05-09 02:59 | 17.01779 | 31.95672 | 34880 ft | 496 kts | 179° |
| 2026-05-09 03:00 | 16.94885 | 31.96104 | 34879 ft | 496 kts | 179° |
| 2026-05-09 03:00 | 16.88054 | 31.96532 | 34878 ft | 496 kts | 179° |
| 2026-05-09 03:01 | 16.81148 | 31.96964 | 34877 ft | 496 kts | 179° |
| 2026-05-09 03:01 | 16.74267 | 31.97394 | 34874 ft | 495 kts | 179° |
| 2026-05-09 03:02 | 16.67372 | 31.97825 | 34873 ft | 495 kts | 179° |
| 2026-05-09 03:02 | 16.60500 | 31.98254 | 34873 ft | 495 kts | 179° |
| 2026-05-09 03:03 | 16.53620 | 31.98683 | 34870 ft | 495 kts | 179° |
| 2026-05-09 03:03 | 16.46752 | 31.99112 | 34869 ft | 494 kts | 179° |
| 2026-05-09 03:04 | 16.39884 | 31.99540 | 34867 ft | 494 kts | 179° |
| 2026-05-09 03:04 | 16.33064 | 31.99964 | 34867 ft | 494 kts | 179° |
| 2026-05-09 03:05 | 16.26197 | 32.00391 | 34865 ft | 494 kts | 179° |
| 2026-05-09 03:05 | 16.19343 | 32.00818 | 34866 ft | 494 kts | 180° |
| 2026-05-09 03:06 | 16.12483 | 32.01244 | 34866 ft | 493 kts | 180° |
| 2026-05-09 03:06 | 16.05631 | 32.01669 | 34862 ft | 493 kts | 180° |
| 2026-05-09 03:07 | 15.98780 | 32.02094 | 34865 ft | 493 kts | 180° |
| 2026-05-09 03:07 | 15.91934 | 32.02519 | 34865 ft | 493 kts | 180° |
| 2026-05-09 03:08 | 15.85087 | 32.02943 | 34866 ft | 492 kts | 180° |
| 2026-05-09 03:08 | 15.78256 | 32.03366 | 34863 ft | 492 kts | 180° |
| 2026-05-09 03:09 | 15.71461 | 32.03787 | 34862 ft | 492 kts | 180° |
| 2026-05-09 03:09 | 15.64617 | 32.04210 | 34859 ft | 491 kts | 180° |
| 2026-05-09 03:10 | 15.57789 | 32.04632 | 34857 ft | 491 kts | 180° |
| 2026-05-09 03:10 | 15.50962 | 32.05054 | 34854 ft | 491 kts | 180° |
| 2026-05-09 03:11 | 15.44149 | 32.05474 | 34851 ft | 491 kts | 180° |
| 2026-05-09 03:11 | 15.37332 | 32.05894 | 34855 ft | 490 kts | 180° |
| 2026-05-09 03:12 | 15.30566 | 32.06311 | 34850 ft | 490 kts | 180° |
| 2026-05-09 03:12 | 15.23752 | 32.06731 | 34851 ft | 490 kts | 180° |
| 2026-05-09 03:13 | 15.13552 | 32.07359 | 34847 ft | 489 kts | 180° |
| 2026-05-09 03:13 | 15.06754 | 32.07777 | 34845 ft | 489 kts | 181° |
| 2026-05-09 03:14 | 14.99957 | 32.08195 | 34845 ft | 489 kts | 181° |
| 2026-05-09 03:14 | 14.93169 | 32.08611 | 34841 ft | 489 kts | 181° |
| 2026-05-09 03:15 | 14.86382 | 32.09028 | 34840 ft | 488 kts | 181° |
| 2026-05-09 03:15 | 14.79603 | 32.09444 | 34841 ft | 488 kts | 181° |
| 2026-05-09 03:16 | 14.72824 | 32.09860 | 34840 ft | 488 kts | 181° |
| 2026-05-09 03:16 | 14.66048 | 32.10275 | 34841 ft | 487 kts | 181° |
| 2026-05-09 03:17 | 14.59285 | 32.10689 | 34842 ft | 487 kts | 181° |
| 2026-05-09 03:17 | 14.52522 | 32.11103 | 34840 ft | 486 kts | 181° |
| 2026-05-09 03:18 | 14.45769 | 32.11516 | 34848 ft | 486 kts | 181° |
| 2026-05-09 03:18 | 14.39063 | 32.11926 | 34851 ft | 485 kts | 181° |
| 2026-05-09 03:19 | 14.32328 | 32.12337 | 34855 ft | 485 kts | 181° |
| 2026-05-09 03:19 | 14.25590 | 32.12748 | 34854 ft | 484 kts | 181° |
| 2026-05-09 03:20 | 14.18857 | 32.13159 | 34853 ft | 484 kts | 181° |
| 2026-05-09 03:20 | 14.12137 | 32.13569 | 34860 ft | 484 kts | 181° |
| 2026-05-09 03:21 | 14.06557 | 32.13908 | 34860 ft | 483 kts | 181° |
| 2026-05-09 03:21 | 13.99841 | 32.14317 | 34867 ft | 483 kts | 181° |
| 2026-05-09 03:22 | 13.93131 | 32.14726 | 34863 ft | 483 kts | 181° |
| 2026-05-09 03:22 | 13.86415 | 32.15134 | 34867 ft | 483 kts | 181° |
| 2026-05-09 03:23 | 13.79698 | 32.15542 | 34864 ft | 483 kts | 181° |
| 2026-05-09 03:23 | 13.72979 | 32.15951 | 34865 ft | 483 kts | 181° |
| 2026-05-09 03:24 | 13.66268 | 32.16358 | 34864 ft | 483 kts | 181° |
| 2026-05-09 03:24 | 13.59544 | 32.16766 | 34863 ft | 484 kts | 181° |
| 2026-05-09 03:25 | 13.52822 | 32.17173 | 34865 ft | 484 kts | 181° |
| 2026-05-09 03:25 | 13.46090 | 32.17582 | 34863 ft | 484 kts | 181° |
| 2026-05-09 03:26 | 13.39361 | 32.17990 | 34864 ft | 485 kts | 181° |
| 2026-05-09 03:26 | 13.32673 | 32.18395 | 34863 ft | 485 kts | 181° |
| 2026-05-09 03:27 | 13.25943 | 32.18802 | 34863 ft | 485 kts | 181° |
| 2026-05-09 03:27 | 13.19198 | 32.19210 | 34861 ft | 484 kts | 181° |
| 2026-05-09 03:28 | 13.12463 | 32.19618 | 34861 ft | 484 kts | 181° |
| 2026-05-09 03:28 | 13.05736 | 32.20024 | 34860 ft | 484 kts | 181° |
| 2026-05-09 03:29 | 12.99016 | 32.20430 | 34862 ft | 484 kts | 181° |
| 2026-05-09 03:29 | 12.92332 | 32.20833 | 34860 ft | 484 kts | 181° |
| 2026-05-09 03:30 | 12.85613 | 32.21238 | 34858 ft | 484 kts | 181° |
| 2026-05-09 03:30 | 12.78888 | 32.21644 | 34855 ft | 484 kts | 181° |
| 2026-05-09 03:31 | 12.72157 | 32.22049 | 34856 ft | 484 kts | 181° |
| 2026-05-09 03:31 | 12.65425 | 32.22454 | 34986 ft | 485 kts | 181° |
| 2026-05-09 03:32 | 12.62063 | 32.22657 | 35303 ft | 483 kts | 180° |
| 2026-05-09 03:32 | 12.58705 | 32.22859 | 35593 ft | 482 kts | 180° |
| 2026-05-09 03:32 | 12.55357 | 32.23061 | 35857 ft | 482 kts | 180° |
| 2026-05-09 03:32 | 12.52008 | 32.23263 | 36097 ft | 482 kts | 180° |
| 2026-05-09 03:33 | 12.48703 | 32.23461 | 36345 ft | 481 kts | 180° |
| 2026-05-09 03:33 | 12.45362 | 32.23662 | 36586 ft | 481 kts | 180° |
| 2026-05-09 03:33 | 12.42019 | 32.23863 | 36806 ft | 481 kts | 180° |
| 2026-05-09 03:33 | 12.38663 | 32.24064 | 36879 ft | 482 kts | 180° |
| 2026-05-09 03:34 | 12.31985 | 32.24466 | 36859 ft | 480 kts | 180° |
| 2026-05-09 03:34 | 12.25316 | 32.24866 | 36868 ft | 480 kts | 181° |
| 2026-05-09 03:35 | 12.18641 | 32.25266 | 36854 ft | 480 kts | 181° |
| 2026-05-09 03:35 | 12.11980 | 32.25666 | 36866 ft | 480 kts | 181° |
| 2026-05-09 03:36 | 12.05321 | 32.26065 | 36858 ft | 479 kts | 181° |
| 2026-05-09 03:36 | 11.98658 | 32.26464 | 36874 ft | 479 kts | 181° |
| 2026-05-09 03:37 | 11.92002 | 32.26863 | 36870 ft | 479 kts | 181° |
| 2026-05-09 03:37 | 11.85386 | 32.27258 | 36865 ft | 479 kts | 181° |
| 2026-05-09 03:38 | 11.78739 | 32.27656 | 36874 ft | 478 kts | 181° |
| 2026-05-09 03:38 | 11.72090 | 32.28054 | 36870 ft | 478 kts | 181° |
| 2026-05-09 03:39 | 11.65450 | 32.28451 | 36876 ft | 478 kts | 181° |
| 2026-05-09 03:39 | 11.58800 | 32.28848 | 36870 ft | 478 kts | 181° |
| 2026-05-09 03:40 | 11.52156 | 32.29244 | 36863 ft | 478 kts | 181° |
| 2026-05-09 03:40 | 11.45514 | 32.29641 | 36867 ft | 478 kts | 181° |
| 2026-05-09 03:41 | 11.38862 | 32.30038 | 36874 ft | 478 kts | 181° |
| 2026-05-09 03:41 | 11.32220 | 32.30434 | 36872 ft | 478 kts | 181° |
| 2026-05-09 03:42 | 11.25569 | 32.30830 | 36872 ft | 479 kts | 181° |
| 2026-05-09 03:42 | 11.18920 | 32.31226 | 36872 ft | 479 kts | 181° |
| 2026-05-09 03:43 | 11.12300 | 32.31620 | 36870 ft | 479 kts | 181° |
| 2026-05-09 03:43 | 11.05641 | 32.32017 | 36874 ft | 479 kts | 181° |
| 2026-05-09 03:44 | 10.98978 | 32.32413 | 36872 ft | 480 kts | 181° |
| 2026-05-09 03:44 | 10.92309 | 32.32809 | 36879 ft | 480 kts | 181° |
| 2026-05-09 03:45 | 10.85640 | 32.33206 | 36871 ft | 480 kts | 180° |
| 2026-05-09 03:45 | 10.79010 | 32.33600 | 36874 ft | 480 kts | 180° |
| 2026-05-09 03:46 | 10.72342 | 32.33996 | 36874 ft | 480 kts | 180° |
| 2026-05-09 03:46 | 10.65680 | 32.34391 | 36876 ft | 480 kts | 180° |
| 2026-05-09 03:47 | 10.59010 | 32.34787 | 36875 ft | 480 kts | 180° |
| 2026-05-09 03:47 | 10.52366 | 32.35181 | 36877 ft | 479 kts | 180° |
| 2026-05-09 03:48 | 10.45685 | 32.35577 | 36871 ft | 479 kts | 180° |
| 2026-05-09 03:48 | 10.39031 | 32.35972 | 36873 ft | 479 kts | 180° |
| 2026-05-09 03:49 | 10.32364 | 32.36367 | 36872 ft | 479 kts | 180° |
| 2026-05-09 03:49 | 10.25756 | 32.36758 | 36867 ft | 479 kts | 180° |
| 2026-05-09 03:50 | 10.19105 | 32.37151 | 36868 ft | 479 kts | 180° |
| 2026-05-09 03:50 | 10.12451 | 32.37545 | 36868 ft | 479 kts | 180° |
| 2026-05-09 03:51 | 10.05799 | 32.37938 | 36870 ft | 479 kts | 180° |
| 2026-05-09 03:51 | 9.99138 | 32.38332 | 36868 ft | 479 kts | 180° |
| 2026-05-09 03:52 | 9.92475 | 32.38726 | 36870 ft | 479 kts | 180° |
| 2026-05-09 03:52 | 9.85814 | 32.39119 | 36870 ft | 479 kts | 180° |
| 2026-05-09 03:53 | 9.79148 | 32.39512 | 36869 ft | 480 kts | 180° |
| 2026-05-09 03:53 | 9.72519 | 32.39904 | 36871 ft | 480 kts | 180° |
| 2026-05-09 03:54 | 9.65848 | 32.40297 | 36869 ft | 480 kts | 180° |
| 2026-05-09 03:54 | 9.59159 | 32.40691 | 36869 ft | 481 kts | 180° |
| 2026-05-09 03:55 | 9.52472 | 32.41086 | 36865 ft | 481 kts | 180° |
| 2026-05-09 03:55 | 9.45789 | 32.41479 | 36868 ft | 481 kts | 180° |
| 2026-05-09 03:56 | 9.39099 | 32.41873 | 36865 ft | 481 kts | 180° |
| 2026-05-09 03:56 | 9.32411 | 32.42267 | 36864 ft | 481 kts | 180° |
| 2026-05-09 03:57 | 9.25727 | 32.42660 | 36859 ft | 481 kts | 180° |
| 2026-05-09 03:57 | 9.19041 | 32.43054 | 36866 ft | 481 kts | 180° |
| 2026-05-09 03:58 | 9.12406 | 32.43444 | 36864 ft | 481 kts | 180° |
| 2026-05-09 03:58 | 9.05716 | 32.43837 | 36863 ft | 481 kts | 180° |
| 2026-05-09 03:59 | 8.99023 | 32.44231 | 36859 ft | 481 kts | 180° |
| 2026-05-09 03:59 | 8.92349 | 32.44623 | 36860 ft | 481 kts | 180° |
| 2026-05-09 04:00 | 8.85662 | 32.45015 | 36859 ft | 481 kts | 180° |
| 2026-05-09 04:00 | 8.78983 | 32.45407 | 36858 ft | 481 kts | 180° |
| 2026-05-09 04:01 | 8.72295 | 32.45799 | 36850 ft | 481 kts | 180° |
| 2026-05-09 04:01 | 8.65613 | 32.46191 | 36854 ft | 481 kts | 180° |
| 2026-05-09 04:02 | 8.58938 | 32.46582 | 36856 ft | 481 kts | 180° |
| 2026-05-09 04:02 | 8.52290 | 32.46972 | 36851 ft | 481 kts | 179° |
| 2026-05-09 04:03 | 8.45611 | 32.47364 | 36855 ft | 481 kts | 179° |
| 2026-05-09 04:03 | 8.38913 | 32.47756 | 36851 ft | 481 kts | 179° |
| 2026-05-09 04:04 | 8.32218 | 32.48148 | 36861 ft | 481 kts | 179° |
| 2026-05-09 04:04 | 8.25527 | 32.48540 | 36859 ft | 481 kts | 179° |
| 2026-05-09 04:05 | 8.18836 | 32.48931 | 36866 ft | 481 kts | 179° |
| 2026-05-09 04:05 | 8.12151 | 32.49322 | 36857 ft | 481 kts | 179° |
| 2026-05-09 04:06 | 8.05458 | 32.49714 | 36853 ft | 482 kts | 179° |
| 2026-05-09 04:06 | 7.98766 | 32.50105 | 36860 ft | 482 kts | 179° |
| 2026-05-09 04:07 | 7.92103 | 32.50494 | 36859 ft | 482 kts | 179° |
| 2026-05-09 04:07 | 7.86484 | 32.50822 | 36859 ft | 482 kts | 179° |
| 2026-05-09 04:08 | 7.79781 | 32.51214 | 36862 ft | 482 kts | 179° |
| 2026-05-09 04:08 | 7.73076 | 32.51611 | 36871 ft | 483 kts | 179° |
| 2026-05-09 04:09 | 7.66520 | 32.52978 | 36866 ft | 489 kts | 162° |
| 2026-05-09 04:09 | 7.60234 | 32.55659 | 36868 ft | 491 kts | 158° |
| 2026-05-09 04:10 | 7.54018 | 32.58542 | 36869 ft | 492 kts | 158° |
| 2026-05-09 04:10 | 7.47808 | 32.61432 | 36875 ft | 491 kts | 158° |
| 2026-05-09 04:11 | 7.41582 | 32.64300 | 36873 ft | 491 kts | 158° |
| 2026-05-09 04:11 | 7.35391 | 32.67136 | 36874 ft | 491 kts | 158° |
| 2026-05-09 04:12 | 7.29159 | 32.69988 | 36879 ft | 491 kts | 158° |
| 2026-05-09 04:12 | 7.22926 | 32.72840 | 36885 ft | 492 kts | 158° |
| 2026-05-09 04:13 | 7.16702 | 32.75689 | 36886 ft | 491 kts | 158° |
| 2026-05-09 04:13 | 7.10473 | 32.78539 | 36887 ft | 491 kts | 158° |
| 2026-05-09 04:14 | 7.04240 | 32.81389 | 36888 ft | 491 kts | 158° |
| 2026-05-09 04:14 | 6.98055 | 32.84217 | 36892 ft | 491 kts | 158° |
| 2026-05-09 04:15 | 6.91823 | 32.87066 | 36891 ft | 492 kts | 158° |
| 2026-05-09 04:15 | 6.85584 | 32.89917 | 36893 ft | 492 kts | 158° |
| 2026-05-09 04:16 | 6.79357 | 32.92762 | 36891 ft | 492 kts | 158° |
| 2026-05-09 04:16 | 6.73122 | 32.95609 | 36895 ft | 492 kts | 158° |
| 2026-05-09 04:17 | 6.66886 | 32.98456 | 36899 ft | 492 kts | 158° |
| 2026-05-09 04:17 | 6.60641 | 33.01307 | 36900 ft | 493 kts | 158° |
| 2026-05-09 04:18 | 6.54385 | 33.04162 | 36903 ft | 493 kts | 157° |
| 2026-05-09 04:18 | 6.48179 | 33.06993 | 36904 ft | 494 kts | 157° |
| 2026-05-09 04:19 | 6.41918 | 33.09848 | 36905 ft | 494 kts | 157° |
| 2026-05-09 04:19 | 6.35645 | 33.12709 | 36904 ft | 495 kts | 157° |
| 2026-05-09 04:20 | 6.29364 | 33.15572 | 36912 ft | 496 kts | 157° |
| 2026-05-09 04:20 | 6.23068 | 33.18440 | 36913 ft | 497 kts | 157° |
| 2026-05-09 04:21 | 6.16770 | 33.21310 | 36914 ft | 497 kts | 157° |
| 2026-05-09 04:22 | 6.07309 | 33.25619 | 36913 ft | 498 kts | 157° |
| 2026-05-09 04:22 | 6.00992 | 33.28495 | 36917 ft | 498 kts | 157° |
| 2026-05-09 04:23 | 5.94676 | 33.31370 | 36917 ft | 498 kts | 157° |
| 2026-05-09 04:23 | 5.88399 | 33.34226 | 36921 ft | 499 kts | 157° |
| 2026-05-09 04:24 | 5.82081 | 33.37101 | 36926 ft | 499 kts | 157° |
| 2026-05-09 04:24 | 5.75752 | 33.39980 | 36928 ft | 499 kts | 157° |
| 2026-05-09 04:25 | 5.69436 | 33.42851 | 36927 ft | 499 kts | 157° |
| 2026-05-09 04:25 | 5.63118 | 33.45724 | 36931 ft | 499 kts | 157° |
| 2026-05-09 04:26 | 5.56784 | 33.48603 | 36930 ft | 499 kts | 157° |
| 2026-05-09 04:26 | 5.50460 | 33.51476 | 36933 ft | 499 kts | 157° |
| 2026-05-09 04:27 | 5.44128 | 33.54353 | 36936 ft | 499 kts | 157° |
| 2026-05-09 04:27 | 5.37802 | 33.57226 | 36936 ft | 499 kts | 157° |
| 2026-05-09 04:28 | 5.31524 | 33.60076 | 36937 ft | 499 kts | 157° |
| 2026-05-09 04:28 | 5.25168 | 33.62962 | 36942 ft | 499 kts | 157° |
| 2026-05-09 04:29 | 5.18828 | 33.65839 | 36945 ft | 500 kts | 157° |
| 2026-05-09 04:29 | 5.12485 | 33.68718 | 36950 ft | 500 kts | 157° |
| 2026-05-09 04:30 | 5.06185 | 33.71576 | 36949 ft | 500 kts | 157° |
| 2026-05-09 04:30 | 4.99846 | 33.74451 | 36954 ft | 500 kts | 157° |
| 2026-05-09 04:31 | 4.93506 | 33.77326 | 36956 ft | 500 kts | 157° |
| 2026-05-09 04:31 | 4.87167 | 33.80200 | 36965 ft | 500 kts | 157° |
| 2026-05-09 04:32 | 4.80819 | 33.83078 | 36967 ft | 500 kts | 157° |
| 2026-05-09 04:32 | 4.74476 | 33.85952 | 36970 ft | 500 kts | 157° |
| 2026-05-09 04:33 | 4.68138 | 33.88824 | 36978 ft | 500 kts | 157° |
| 2026-05-09 04:33 | 4.61799 | 33.91696 | 36982 ft | 500 kts | 157° |
| 2026-05-09 04:34 | 4.55460 | 33.94567 | 36987 ft | 500 kts | 157° |
| 2026-05-09 04:34 | 4.49122 | 33.97437 | 36991 ft | 500 kts | 157° |
| 2026-05-09 04:35 | 4.42787 | 34.00305 | 36989 ft | 500 kts | 157° |
| 2026-05-09 04:35 | 4.36444 | 34.03176 | 36996 ft | 500 kts | 157° |
| 2026-05-09 04:36 | 4.30104 | 34.06046 | 36996 ft | 500 kts | 157° |
| 2026-05-09 04:36 | 4.23762 | 34.08916 | 36999 ft | 500 kts | 157° |
| 2026-05-09 04:37 | 4.17416 | 34.11787 | 37001 ft | 500 kts | 157° |
| 2026-05-09 04:37 | 4.11114 | 34.14637 | 37004 ft | 500 kts | 157° |
| 2026-05-09 04:38 | 4.04772 | 34.17506 | 37009 ft | 500 kts | 157° |
| 2026-05-09 04:38 | 3.98434 | 34.20378 | 37012 ft | 500 kts | 156° |
| 2026-05-09 04:39 | 3.92188 | 34.23466 | 37015 ft | 500 kts | 154° |
| 2026-05-09 04:39 | 3.85999 | 34.26653 | 37015 ft | 500 kts | 154° |
| 2026-05-09 04:40 | 3.79792 | 34.29815 | 37019 ft | 500 kts | 154° |
| 2026-05-09 04:40 | 3.73568 | 34.32950 | 37021 ft | 500 kts | 154° |
| 2026-05-09 04:41 | 3.67381 | 34.36055 | 37019 ft | 500 kts | 154° |
| 2026-05-09 04:41 | 3.61157 | 34.39178 | 37019 ft | 500 kts | 154° |
| 2026-05-09 04:42 | 3.54940 | 34.42299 | 37022 ft | 500 kts | 154° |
| 2026-05-09 04:42 | 3.48702 | 34.45431 | 37018 ft | 500 kts | 154° |
| 2026-05-09 04:43 | 3.42478 | 34.48555 | 37019 ft | 500 kts | 154° |
| 2026-05-09 04:43 | 3.36249 | 34.51680 | 37017 ft | 500 kts | 154° |
| 2026-05-09 04:44 | 3.30023 | 34.54805 | 37018 ft | 500 kts | 154° |
| 2026-05-09 04:44 | 3.23833 | 34.57910 | 37017 ft | 501 kts | 154° |
| 2026-05-09 04:45 | 3.17604 | 34.61035 | 37018 ft | 501 kts | 154° |
| 2026-05-09 04:45 | 3.11374 | 34.64161 | 37018 ft | 501 kts | 154° |
| 2026-05-09 04:46 | 3.05168 | 34.67273 | 37020 ft | 501 kts | 154° |
| 2026-05-09 04:46 | 2.99016 | 34.70358 | 37022 ft | 501 kts | 154° |
| 2026-05-09 04:47 | 2.92941 | 34.73404 | 37014 ft | 501 kts | 154° |
| 2026-05-09 04:47 | 2.86671 | 34.76548 | 37016 ft | 501 kts | 154° |
| 2026-05-09 04:48 | 2.80482 | 34.79650 | 37013 ft | 501 kts | 154° |
| 2026-05-09 04:48 | 2.74256 | 34.82770 | 37010 ft | 501 kts | 154° |
| 2026-05-09 04:49 | 2.68017 | 34.85897 | 37009 ft | 502 kts | 154° |
| 2026-05-09 04:49 | 2.61768 | 34.89028 | 37009 ft | 502 kts | 154° |
| 2026-05-09 04:50 | 2.55524 | 34.92157 | 37013 ft | 502 kts | 154° |
| 2026-05-09 04:50 | 2.49289 | 34.95280 | 37011 ft | 502 kts | 154° |
| 2026-05-09 04:51 | 2.43040 | 34.98400 | 37014 ft | 502 kts | 155° |
| 2026-05-09 04:51 | 2.36639 | 35.01157 | 37018 ft | 501 kts | 159° |
| 2026-05-09 04:52 | 2.30168 | 35.03748 | 37016 ft | 501 kts | 159° |
| 2026-05-09 04:52 | 2.23751 | 35.06375 | 37019 ft | 501 kts | 159° |
| 2026-05-09 04:53 | 2.17327 | 35.09060 | 37023 ft | 500 kts | 158° |
| 2026-05-09 04:53 | 2.10905 | 35.11761 | 37021 ft | 500 kts | 158° |
| 2026-05-09 04:54 | 2.04496 | 35.14457 | 37018 ft | 500 kts | 158° |
| 2026-05-09 04:54 | 1.99160 | 35.16697 | 37021 ft | 500 kts | 158° |
| 2026-05-09 04:55 | 1.92745 | 35.19391 | 37019 ft | 500 kts | 158° |
| 2026-05-09 04:55 | 1.86325 | 35.22086 | 37025 ft | 500 kts | 158° |
| 2026-05-09 04:56 | 1.79903 | 35.24781 | 37021 ft | 500 kts | 158° |
| 2026-05-09 04:56 | 1.73490 | 35.27472 | 37024 ft | 500 kts | 158° |
| 2026-05-09 04:57 | 1.67074 | 35.30165 | 37025 ft | 500 kts | 158° |
| 2026-05-09 04:57 | 1.60649 | 35.32863 | 37035 ft | 500 kts | 158° |
| 2026-05-09 04:58 | 1.54277 | 35.35536 | 37041 ft | 500 kts | 158° |
| 2026-05-09 04:58 | 1.47837 | 35.38238 | 37044 ft | 500 kts | 158° |
| 2026-05-09 04:59 | 1.41411 | 35.40935 | 37052 ft | 500 kts | 158° |
| 2026-05-09 04:59 | 1.34983 | 35.43632 | 37055 ft | 501 kts | 158° |
| 2026-05-09 05:00 | 1.28605 | 35.46307 | 37060 ft | 501 kts | 158° |
| 2026-05-09 05:00 | 1.22132 | 35.49022 | 37066 ft | 500 kts | 158° |
| 2026-05-09 05:01 | 1.15758 | 35.51696 | 37066 ft | 500 kts | 158° |
| 2026-05-09 05:01 | 1.09345 | 35.54407 | 37067 ft | 500 kts | 158° |
| 2026-05-09 05:02 | 1.02981 | 35.57197 | 37069 ft | 500 kts | 157° |
| 2026-05-09 05:02 | 0.96667 | 35.59981 | 37057 ft | 499 kts | 157° |
| 2026-05-09 05:03 | 0.90297 | 35.62774 | 37060 ft | 499 kts | 157° |
| 2026-05-09 05:03 | 0.83932 | 35.65555 | 37057 ft | 499 kts | 157° |
| 2026-05-09 05:04 | 0.77554 | 35.68340 | 37050 ft | 499 kts | 157° |
| 2026-05-09 05:04 | 0.71197 | 35.71116 | 37052 ft | 499 kts | 157° |
| 2026-05-09 05:05 | 0.64834 | 35.73895 | 37050 ft | 499 kts | 157° |
| 2026-05-09 05:05 | 0.58503 | 35.76660 | 37052 ft | 499 kts | 157° |
| 2026-05-09 05:06 | 0.52123 | 35.79448 | 37057 ft | 499 kts | 157° |
| 2026-05-09 05:06 | 0.45755 | 35.82230 | 37057 ft | 499 kts | 157° |
| 2026-05-09 05:07 | 0.39383 | 35.85013 | 37063 ft | 500 kts | 157° |
| 2026-05-09 05:07 | 0.33005 | 35.87798 | 37072 ft | 499 kts | 157° |
| 2026-05-09 05:08 | 0.26647 | 35.90574 | 37081 ft | 499 kts | 157° |
| 2026-05-09 05:08 | 0.20300 | 35.93346 | 37088 ft | 499 kts | 157° |
| 2026-05-09 05:09 | 0.13937 | 35.96126 | 37097 ft | 499 kts | 157° |
| 2026-05-09 05:09 | 0.07561 | 35.98911 | 37111 ft | 499 kts | 157° |
| 2026-05-09 05:10 | 0.01198 | 36.01689 | 37121 ft | 499 kts | 157° |
| 2026-05-09 05:10 | -0.05164 | 36.04468 | 37124 ft | 499 kts | 157° |
| 2026-05-09 05:11 | -0.11532 | 36.07249 | 37138 ft | 499 kts | 157° |
| 2026-05-09 05:11 | -0.17861 | 36.10013 | 37144 ft | 499 kts | 157° |
| 2026-05-09 05:12 | -0.24221 | 36.12791 | 37154 ft | 499 kts | 157° |
| 2026-05-09 05:12 | -0.30371 | 36.15993 | 37165 ft | 500 kts | 145° |
| 2026-05-09 05:13 | -0.35596 | 36.20609 | 37170 ft | 501 kts | 136° |
| 2026-05-09 05:13 | -0.40508 | 36.25566 | 37181 ft | 502 kts | 135° |
| 2026-05-09 05:14 | -0.45386 | 36.30569 | 37189 ft | 502 kts | 135° |
| 2026-05-09 05:14 | -0.50248 | 36.35521 | 37193 ft | 502 kts | 135° |
| 2026-05-09 05:15 | -0.55151 | 36.40486 | 37201 ft | 502 kts | 135° |
| 2026-05-09 05:15 | -0.60072 | 36.45462 | 37211 ft | 502 kts | 135° |
| 2026-05-09 05:16 | -0.64972 | 36.50416 | 37216 ft | 502 kts | 135° |
| 2026-05-09 05:16 | -0.69887 | 36.55389 | 37219 ft | 502 kts | 135° |
| 2026-05-09 05:17 | -0.74790 | 36.60349 | 37223 ft | 501 kts | 135° |
| 2026-05-09 05:17 | -0.79664 | 36.65281 | 37223 ft | 501 kts | 135° |
| 2026-05-09 05:18 | -0.84560 | 36.70234 | 37224 ft | 501 kts | 135° |
| 2026-05-09 05:18 | -0.89452 | 36.75184 | 37228 ft | 501 kts | 135° |
| 2026-05-09 05:19 | -0.94173 | 36.79962 | 37226 ft | 501 kts | 135° |
| 2026-05-09 05:19 | -0.99071 | 36.84918 | 37232 ft | 501 kts | 135° |
| 2026-05-09 05:20 | -1.03950 | 36.89855 | 37229 ft | 501 kts | 135° |
| 2026-05-09 05:20 | -1.08832 | 36.94796 | 37233 ft | 500 kts | 135° |
| 2026-05-09 05:21 | -1.13729 | 36.99752 | 37232 ft | 500 kts | 135° |
| 2026-05-09 05:21 | -1.18609 | 37.04691 | 37231 ft | 499 kts | 135° |
| 2026-05-09 05:22 | -1.23470 | 37.09611 | 37231 ft | 499 kts | 135° |
| 2026-05-09 05:22 | -1.28334 | 37.14536 | 37229 ft | 499 kts | 135° |
| 2026-05-09 05:23 | -1.33174 | 37.19435 | 37224 ft | 499 kts | 135° |
| 2026-05-09 05:23 | -1.38046 | 37.24367 | 37212 ft | 499 kts | 135° |
| 2026-05-09 05:24 | -1.42869 | 37.29250 | 37203 ft | 499 kts | 135° |
| 2026-05-09 05:24 | -1.47742 | 37.34183 | 37200 ft | 498 kts | 135° |
| 2026-05-09 05:25 | -1.52614 | 37.39117 | 37196 ft | 498 kts | 135° |
| 2026-05-09 05:25 | -1.59916 | 37.46511 | 37193 ft | 497 kts | 135° |
| 2026-05-09 05:26 | -1.64775 | 37.51432 | 37185 ft | 497 kts | 135° |
| 2026-05-09 05:26 | -1.69617 | 37.56336 | 37178 ft | 496 kts | 135° |
| 2026-05-09 05:27 | -1.74473 | 37.61254 | 37170 ft | 496 kts | 135° |
| 2026-05-09 05:27 | -1.79270 | 37.66109 | 37163 ft | 496 kts | 135° |
| 2026-05-09 05:28 | -1.84145 | 37.70973 | 37159 ft | 495 kts | 135° |
| 2026-05-09 05:28 | -1.89045 | 37.75839 | 37149 ft | 495 kts | 135° |
| 2026-05-09 05:29 | -1.93921 | 37.80692 | 37140 ft | 495 kts | 135° |
| 2026-05-09 05:29 | -1.98799 | 37.85556 | 37133 ft | 495 kts | 135° |
| 2026-05-09 05:30 | -2.03684 | 37.90429 | 37124 ft | 495 kts | 135° |
| 2026-05-09 05:30 | -2.08560 | 37.95294 | 37119 ft | 495 kts | 135° |
| 2026-05-09 05:31 | -2.13438 | 38.00160 | 37115 ft | 495 kts | 135° |
| 2026-05-09 05:31 | -2.18307 | 38.05019 | 37107 ft | 494 kts | 135° |
| 2026-05-09 05:32 | -2.23178 | 38.09879 | 37102 ft | 494 kts | 135° |
| 2026-05-09 05:32 | -2.28045 | 38.14736 | 37096 ft | 494 kts | 135° |
| 2026-05-09 05:33 | -2.32907 | 38.19588 | 37087 ft | 494 kts | 135° |
| 2026-05-09 05:33 | -2.37735 | 38.24407 | 37081 ft | 493 kts | 135° |
| 2026-05-09 05:34 | -2.42597 | 38.29260 | 37077 ft | 493 kts | 135° |
| 2026-05-09 05:34 | -2.47446 | 38.34101 | 37075 ft | 492 kts | 135° |
| 2026-05-09 05:35 | -2.52293 | 38.38941 | 37069 ft | 492 kts | 135° |
| 2026-05-09 05:35 | -2.57133 | 38.43773 | 37064 ft | 492 kts | 135° |
| 2026-05-09 05:36 | -2.61962 | 38.48595 | 37057 ft | 491 kts | 135° |
| 2026-05-09 05:36 | -2.66804 | 38.53432 | 37055 ft | 490 kts | 135° |
| 2026-05-09 05:37 | -2.71627 | 38.58249 | 37051 ft | 489 kts | 135° |
| 2026-05-09 05:37 | -2.76411 | 38.63029 | 37048 ft | 489 kts | 135° |
| 2026-05-09 05:38 | -2.81223 | 38.67837 | 37043 ft | 488 kts | 135° |
| 2026-05-09 05:38 | -2.86030 | 38.72640 | 37042 ft | 488 kts | 135° |
| 2026-05-09 05:39 | -2.90833 | 38.77439 | 37037 ft | 488 kts | 135° |
| 2026-05-09 05:39 | -2.95628 | 38.82232 | 37034 ft | 487 kts | 135° |
| 2026-05-09 05:40 | -2.99610 | 38.86213 | 37028 ft | 487 kts | 135° |
| 2026-05-09 05:40 | -3.04398 | 38.91000 | 37029 ft | 486 kts | 135° |
| 2026-05-09 05:41 | -3.09172 | 38.95774 | 37025 ft | 485 kts | 135° |
| 2026-05-09 05:41 | -3.13953 | 39.00555 | 37018 ft | 485 kts | 135° |
| 2026-05-09 05:42 | -3.18721 | 39.05324 | 37018 ft | 485 kts | 135° |
| 2026-05-09 05:42 | -3.23494 | 39.10099 | 37018 ft | 485 kts | 135° |
| 2026-05-09 05:43 | -3.28294 | 39.14828 | 37016 ft | 485 kts | 136° |
| 2026-05-09 05:43 | -3.33166 | 39.19458 | 37011 ft | 484 kts | 136° |
| 2026-05-09 05:44 | -3.38058 | 39.24104 | 37011 ft | 484 kts | 136° |
| 2026-05-09 05:44 | -3.42932 | 39.28761 | 37007 ft | 485 kts | 136° |
| 2026-05-09 05:45 | -3.47798 | 39.33424 | 37000 ft | 485 kts | 136° |
| 2026-05-09 05:45 | -3.52670 | 39.38097 | 37003 ft | 485 kts | 136° |
| 2026-05-09 05:46 | -3.57549 | 39.42774 | 36997 ft | 485 kts | 136° |
| 2026-05-09 05:46 | -3.62392 | 39.47417 | 36995 ft | 485 kts | 136° |
| 2026-05-09 05:47 | -3.67260 | 39.52086 | 36994 ft | 485 kts | 136° |
| 2026-05-09 05:47 | -3.72147 | 39.56774 | 36989 ft | 485 kts | 135° |
| 2026-05-09 05:48 | -3.77028 | 39.61457 | 36986 ft | 486 kts | 136° |
| 2026-05-09 05:48 | -3.81917 | 39.66146 | 36989 ft | 486 kts | 136° |
| 2026-05-09 05:49 | -3.86781 | 39.70784 | 36992 ft | 486 kts | 136° |
| 2026-05-09 05:49 | -3.91672 | 39.75449 | 36990 ft | 485 kts | 136° |
| 2026-05-09 05:50 | -3.96559 | 39.80115 | 36992 ft | 485 kts | 136° |
| 2026-05-09 05:50 | -4.01442 | 39.84782 | 36998 ft | 485 kts | 136° |
| 2026-05-09 05:51 | -4.06320 | 39.89444 | 37001 ft | 485 kts | 136° |
| 2026-05-09 05:51 | -4.11209 | 39.94119 | 37006 ft | 485 kts | 135° |
| 2026-05-09 05:52 | -4.16092 | 39.98788 | 37008 ft | 485 kts | 136° |
| 2026-05-09 05:52 | -4.20969 | 40.03451 | 37011 ft | 485 kts | 136° |
| 2026-05-09 05:53 | -4.25843 | 40.08112 | 37013 ft | 484 kts | 136° |
| 2026-05-09 05:53 | -4.30688 | 40.12748 | 37012 ft | 485 kts | 136° |
| 2026-05-09 05:54 | -4.35563 | 40.17412 | 37012 ft | 485 kts | 136° |
| 2026-05-09 05:54 | -4.40437 | 40.22076 | 37013 ft | 485 kts | 136° |
| 2026-05-09 05:55 | -4.45316 | 40.26747 | 37013 ft | 485 kts | 136° |
| 2026-05-09 05:55 | -4.50197 | 40.31419 | 37008 ft | 485 kts | 136° |
| 2026-05-09 05:56 | -4.55074 | 40.36090 | 37010 ft | 485 kts | 136° |
| 2026-05-09 05:56 | -4.59959 | 40.40769 | 37014 ft | 485 kts | 136° |
| 2026-05-09 05:57 | -4.64836 | 40.45441 | 37012 ft | 485 kts | 136° |
| 2026-05-09 05:57 | -4.69722 | 40.50118 | 37012 ft | 485 kts | 136° |
| 2026-05-09 05:58 | -4.74612 | 40.54780 | 37008 ft | 485 kts | 136° |
| 2026-05-09 05:58 | -4.79499 | 40.59436 | 37008 ft | 485 kts | 136° |
| 2026-05-09 05:59 | -4.84310 | 40.64107 | 37008 ft | 484 kts | 133° |
| 2026-05-09 05:59 | -4.88790 | 40.69147 | 37007 ft | 484 kts | 130° |
| 2026-05-09 06:00 | -4.93185 | 40.74264 | 37006 ft | 484 kts | 130° |
| 2026-05-09 06:00 | -4.97628 | 40.79327 | 37008 ft | 484 kts | 131° |
| 2026-05-09 06:01 | -5.02114 | 40.84365 | 37005 ft | 484 kts | 131° |
| 2026-05-09 06:01 | -5.06610 | 40.89399 | 37009 ft | 483 kts | 131° |
| 2026-05-09 06:02 | -5.11099 | 40.94430 | 37010 ft | 483 kts | 131° |
| 2026-05-09 06:02 | -5.15582 | 40.99458 | 37009 ft | 483 kts | 131° |
| 2026-05-09 06:03 | -5.20035 | 41.04456 | 37009 ft | 484 kts | 131° |
| 2026-05-09 06:03 | -5.24519 | 41.09488 | 37010 ft | 484 kts | 131° |
| 2026-05-09 06:04 | -5.29009 | 41.14529 | 37006 ft | 484 kts | 131° |
| 2026-05-09 06:04 | -5.33494 | 41.19565 | 37004 ft | 484 kts | 131° |
| 2026-05-09 06:05 | -5.37979 | 41.24604 | 37007 ft | 484 kts | 131° |
| 2026-05-09 06:05 | -5.42465 | 41.29643 | 37009 ft | 484 kts | 131° |
| 2026-05-09 06:06 | -5.46955 | 41.34689 | 37010 ft | 484 kts | 131° |
| 2026-05-09 06:06 | -5.51414 | 41.39702 | 37008 ft | 484 kts | 131° |
| 2026-05-09 06:07 | -5.55902 | 41.44748 | 37010 ft | 484 kts | 131° |
| 2026-05-09 06:07 | -5.60387 | 41.49791 | 37010 ft | 484 kts | 131° |
| 2026-05-09 06:08 | -5.64874 | 41.54838 | 37007 ft | 484 kts | 131° |
| 2026-05-09 06:08 | -5.69360 | 41.59886 | 37006 ft | 484 kts | 131° |
| 2026-05-09 06:09 | -5.73844 | 41.64933 | 37009 ft | 484 kts | 131° |
| 2026-05-09 06:09 | -5.78333 | 41.69987 | 37010 ft | 484 kts | 131° |
| 2026-05-09 06:10 | -5.82821 | 41.75039 | 37006 ft | 484 kts | 131° |
| 2026-05-09 06:10 | -5.87308 | 41.80093 | 37008 ft | 484 kts | 131° |
| 2026-05-09 06:11 | -5.91794 | 41.85147 | 37007 ft | 484 kts | 131° |
| 2026-05-09 06:11 | -5.96254 | 41.90174 | 37008 ft | 484 kts | 131° |
| 2026-05-09 06:12 | -6.00740 | 41.95231 | 37006 ft | 484 kts | 131° |
| 2026-05-09 06:12 | -6.05231 | 42.00294 | 37009 ft | 485 kts | 131° |
| 2026-05-09 06:13 | -6.09720 | 42.05356 | 37006 ft | 485 kts | 131° |
| 2026-05-09 06:13 | -6.14203 | 42.10414 | 37009 ft | 485 kts | 131° |
| 2026-05-09 06:14 | -6.18661 | 42.15445 | 37007 ft | 485 kts | 131° |
| 2026-05-09 06:14 | -6.23169 | 42.20534 | 37007 ft | 485 kts | 131° |
| 2026-05-09 06:15 | -6.27626 | 42.25566 | 37008 ft | 484 kts | 131° |
| 2026-05-09 06:15 | -6.32109 | 42.30629 | 37007 ft | 484 kts | 131° |
| 2026-05-09 06:16 | -6.36589 | 42.35690 | 37006 ft | 484 kts | 131° |
| 2026-05-09 06:16 | -6.41065 | 42.40748 | 37006 ft | 484 kts | 131° |
| 2026-05-09 06:17 | -6.45544 | 42.45811 | 37004 ft | 484 kts | 131° |
| 2026-05-09 06:17 | -6.50027 | 42.50880 | 37007 ft | 484 kts | 131° |
| 2026-05-09 06:18 | -6.54510 | 42.55950 | 37006 ft | 484 kts | 131° |
| 2026-05-09 06:18 | -6.58985 | 42.61013 | 37006 ft | 484 kts | 131° |
| 2026-05-09 06:19 | -6.63435 | 42.66049 | 37006 ft | 484 kts | 131° |
| 2026-05-09 06:19 | -6.67911 | 42.71115 | 37007 ft | 484 kts | 131° |
| 2026-05-09 06:20 | -6.72379 | 42.76175 | 37005 ft | 484 kts | 131° |
| 2026-05-09 06:20 | -6.76858 | 42.81248 | 37005 ft | 484 kts | 131° |
| 2026-05-09 06:21 | -6.81335 | 42.86321 | 37005 ft | 484 kts | 131° |
| 2026-05-09 06:21 | -6.85804 | 42.91385 | 37004 ft | 484 kts | 131° |
| 2026-05-09 06:22 | -6.90248 | 42.96423 | 37004 ft | 484 kts | 131° |
| 2026-05-09 06:22 | -6.94718 | 43.01492 | 37008 ft | 484 kts | 131° |
| 2026-05-09 06:23 | -6.99189 | 43.06565 | 37004 ft | 484 kts | 131° |
| 2026-05-09 06:23 | -7.03658 | 43.11636 | 37007 ft | 484 kts | 131° |
| 2026-05-09 06:24 | -7.08128 | 43.16710 | 37007 ft | 484 kts | 131° |
| 2026-05-09 06:24 | -7.12590 | 43.21777 | 37007 ft | 484 kts | 131° |
| 2026-05-09 06:25 | -7.17055 | 43.26848 | 37008 ft | 484 kts | 131° |
| 2026-05-09 06:25 | -7.21522 | 43.31924 | 37006 ft | 484 kts | 131° |
| 2026-05-09 06:26 | -7.25233 | 43.36141 | 37007 ft | 484 kts | 131° |
| 2026-05-09 06:26 | -7.29699 | 43.41219 | 37005 ft | 484 kts | 131° |
| 2026-05-09 06:27 | -7.34165 | 43.46298 | 37007 ft | 484 kts | 131° |
| 2026-05-09 06:27 | -7.38598 | 43.51341 | 37005 ft | 484 kts | 131° |
| 2026-05-09 06:28 | -7.43059 | 43.56418 | 37004 ft | 484 kts | 131° |
| 2026-05-09 06:28 | -7.47520 | 43.61496 | 37007 ft | 484 kts | 131° |
| 2026-05-09 06:29 | -7.51977 | 43.66571 | 37006 ft | 484 kts | 131° |
| 2026-05-09 06:29 | -7.56438 | 43.71653 | 37006 ft | 483 kts | 131° |
| 2026-05-09 06:30 | -7.60895 | 43.76732 | 37006 ft | 483 kts | 131° |
| 2026-05-09 06:30 | -7.65355 | 43.81816 | 37007 ft | 483 kts | 131° |
| 2026-05-09 06:31 | -7.69783 | 43.86866 | 37010 ft | 483 kts | 131° |
| 2026-05-09 06:31 | -7.74238 | 43.91947 | 37012 ft | 483 kts | 131° |
| 2026-05-09 06:32 | -7.78693 | 43.97031 | 37010 ft | 483 kts | 131° |
| 2026-05-09 06:33 | -7.85386 | 44.04633 | 37008 ft | 483 kts | 131° |
| 2026-05-09 06:33 | -7.89898 | 44.09678 | 37006 ft | 483 kts | 131° |
| 2026-05-09 06:34 | -7.96653 | 44.17243 | 37009 ft | 483 kts | 131° |
| 2026-05-09 06:34 | -8.01117 | 44.22257 | 37009 ft | 484 kts | 131° |
| 2026-05-09 06:35 | -8.05613 | 44.27310 | 37009 ft | 484 kts | 131° |
| 2026-05-09 06:35 | -8.10107 | 44.32362 | 37009 ft | 484 kts | 131° |
| 2026-05-09 06:36 | -8.14596 | 44.37411 | 37010 ft | 483 kts | 131° |
| 2026-05-09 06:36 | -8.19081 | 44.42457 | 37009 ft | 483 kts | 131° |
| 2026-05-09 06:37 | -8.23572 | 44.47511 | 37007 ft | 483 kts | 131° |
| 2026-05-09 06:37 | -8.28065 | 44.52570 | 37008 ft | 483 kts | 131° |
| 2026-05-09 06:38 | -8.32552 | 44.57624 | 37010 ft | 483 kts | 131° |
| 2026-05-09 06:38 | -8.37035 | 44.62675 | 37012 ft | 483 kts | 131° |
| 2026-05-09 06:39 | -8.41524 | 44.67734 | 37012 ft | 482 kts | 131° |
| 2026-05-09 06:39 | -8.45996 | 44.72777 | 37013 ft | 482 kts | 131° |
| 2026-05-09 06:40 | -8.50445 | 44.77795 | 37013 ft | 482 kts | 131° |
| 2026-05-09 06:40 | -8.54910 | 44.82834 | 37012 ft | 481 kts | 131° |
| 2026-05-09 06:41 | -8.59378 | 44.87878 | 37013 ft | 481 kts | 131° |
| 2026-05-09 06:41 | -8.63847 | 44.92924 | 37011 ft | 481 kts | 131° |
| 2026-05-09 06:42 | -8.68309 | 44.97965 | 37013 ft | 481 kts | 131° |
| 2026-05-09 06:42 | -8.72770 | 45.03006 | 37013 ft | 481 kts | 131° |
| 2026-05-09 06:43 | -8.77226 | 45.08044 | 37014 ft | 481 kts | 131° |
| 2026-05-09 06:43 | -8.81686 | 45.13089 | 37013 ft | 480 kts | 131° |
| 2026-05-09 06:44 | -8.86138 | 45.18126 | 37017 ft | 480 kts | 130° |
| 2026-05-09 06:44 | -8.90563 | 45.23134 | 37013 ft | 480 kts | 130° |
| 2026-05-09 06:45 | -8.95012 | 45.28172 | 37016 ft | 480 kts | 130° |
| 2026-05-09 06:45 | -8.99464 | 45.33216 | 37014 ft | 480 kts | 130° |
| 2026-05-09 06:46 | -9.03909 | 45.38252 | 37019 ft | 480 kts | 130° |
| 2026-05-09 06:46 | -9.08352 | 45.43291 | 37016 ft | 480 kts | 130° |
| 2026-05-09 06:47 | -9.12797 | 45.48331 | 37018 ft | 480 kts | 130° |
| 2026-05-09 06:47 | -9.17244 | 45.53377 | 37017 ft | 480 kts | 130° |
| 2026-05-09 06:48 | -9.21656 | 45.58386 | 37017 ft | 480 kts | 130° |
| 2026-05-09 06:48 | -9.26098 | 45.63431 | 37017 ft | 480 kts | 130° |
| 2026-05-09 06:49 | -9.30534 | 45.68469 | 37019 ft | 479 kts | 130° |
| 2026-05-09 06:49 | -9.34975 | 45.73516 | 37018 ft | 479 kts | 130° |
| 2026-05-09 06:50 | -9.39411 | 45.78560 | 37018 ft | 479 kts | 130° |
| 2026-05-09 06:50 | -9.43852 | 45.83611 | 37019 ft | 479 kts | 130° |
| 2026-05-09 06:51 | -9.48283 | 45.88653 | 37018 ft | 479 kts | 130° |
| 2026-05-09 06:51 | -9.52715 | 45.93699 | 37018 ft | 479 kts | 130° |
| 2026-05-09 06:52 | -9.57121 | 45.98717 | 37017 ft | 479 kts | 130° |
| 2026-05-09 06:52 | -9.61549 | 46.03761 | 37018 ft | 479 kts | 130° |
| 2026-05-09 06:53 | -9.65977 | 46.08809 | 37018 ft | 479 kts | 130° |
| 2026-05-09 06:53 | -9.70397 | 46.13849 | 37017 ft | 479 kts | 130° |
| 2026-05-09 06:54 | -9.74822 | 46.18897 | 37018 ft | 478 kts | 130° |
| 2026-05-09 06:54 | -9.79241 | 46.23941 | 37017 ft | 479 kts | 130° |
| 2026-05-09 06:55 | -9.83668 | 46.28996 | 37016 ft | 478 kts | 130° |
| 2026-05-09 06:55 | -9.88087 | 46.34044 | 37019 ft | 478 kts | 130° |
| 2026-05-09 06:56 | -9.92507 | 46.39094 | 37016 ft | 479 kts | 130° |
| 2026-05-09 06:56 | -9.96927 | 46.44147 | 37016 ft | 479 kts | 130° |
| 2026-05-09 06:57 | -10.01343 | 46.49203 | 37016 ft | 479 kts | 130° |
| 2026-05-09 06:57 | -10.05686 | 46.54323 | 37016 ft | 478 kts | 129° |
| 2026-05-09 06:58 | -10.09993 | 46.59461 | 37020 ft | 478 kts | 129° |
| 2026-05-09 06:58 | -10.14285 | 46.64562 | 37018 ft | 478 kts | 129° |
| 2026-05-09 06:59 | -10.18606 | 46.69684 | 37023 ft | 478 kts | 129° |
| 2026-05-09 06:59 | -10.22936 | 46.74812 | 37025 ft | 478 kts | 129° |
| 2026-05-09 07:00 | -10.27263 | 46.79938 | 37021 ft | 478 kts | 129° |
| 2026-05-09 07:00 | -10.31590 | 46.85070 | 37020 ft | 478 kts | 129° |
| 2026-05-09 07:01 | -10.35917 | 46.90201 | 37020 ft | 478 kts | 129° |
| 2026-05-09 07:01 | -10.40236 | 46.95329 | 37026 ft | 477 kts | 129° |
| 2026-05-09 07:02 | -10.44554 | 47.00459 | 37030 ft | 477 kts | 129° |
| 2026-05-09 07:02 | -10.48843 | 47.05555 | 37025 ft | 477 kts | 129° |
| 2026-05-09 07:03 | -10.53159 | 47.10686 | 37022 ft | 478 kts | 129° |
| 2026-05-09 07:03 | -10.57486 | 47.15828 | 37023 ft | 478 kts | 129° |
| 2026-05-09 07:04 | -10.61809 | 47.20971 | 37028 ft | 478 kts | 129° |
| 2026-05-09 07:04 | -10.66135 | 47.26120 | 37024 ft | 479 kts | 129° |
| 2026-05-09 07:05 | -10.70458 | 47.31270 | 37022 ft | 479 kts | 129° |
| 2026-05-09 07:05 | -10.74781 | 47.36419 | 37026 ft | 479 kts | 129° |
| 2026-05-09 07:06 | -10.79112 | 47.41580 | 37022 ft | 479 kts | 129° |
| 2026-05-09 07:06 | -10.83428 | 47.46726 | 37024 ft | 478 kts | 129° |
| 2026-05-09 07:07 | -10.87720 | 47.51848 | 37022 ft | 479 kts | 129° |
| 2026-05-09 07:07 | -10.92042 | 47.57005 | 37022 ft | 479 kts | 129° |
| 2026-05-09 07:08 | -10.96364 | 47.62171 | 37026 ft | 479 kts | 129° |
| 2026-05-09 07:08 | -11.00679 | 47.67336 | 37024 ft | 479 kts | 129° |
| 2026-05-09 07:09 | -11.04991 | 47.72500 | 37027 ft | 479 kts | 129° |
| 2026-05-09 07:09 | -11.09310 | 47.77673 | 37028 ft | 479 kts | 129° |
| 2026-05-09 07:10 | -11.13633 | 47.82849 | 37026 ft | 479 kts | 129° |
| 2026-05-09 07:10 | -11.17954 | 47.88029 | 37026 ft | 479 kts | 129° |
| 2026-05-09 07:11 | -11.21537 | 47.92327 | 37026 ft | 479 kts | 129° |
| 2026-05-09 07:11 | -11.25847 | 47.97497 | 37023 ft | 479 kts | 129° |
| 2026-05-09 07:12 | -11.30158 | 48.02673 | 37033 ft | 479 kts | 129° |
| 2026-05-09 07:12 | -11.34464 | 48.07845 | 37025 ft | 479 kts | 129° |
| 2026-05-09 07:13 | -11.38785 | 48.13037 | 37022 ft | 479 kts | 129° |
| 2026-05-09 07:13 | -11.43096 | 48.18220 | 37028 ft | 480 kts | 129° |
| 2026-05-09 07:14 | -11.47414 | 48.23414 | 37025 ft | 480 kts | 129° |
| 2026-05-09 07:14 | -11.51736 | 48.28615 | 37023 ft | 480 kts | 129° |
| 2026-05-09 07:15 | -11.56056 | 48.33817 | 37022 ft | 480 kts | 130° |
| 2026-05-09 07:15 | -11.60347 | 48.38987 | 37021 ft | 480 kts | 130° |
| 2026-05-09 07:16 | -11.64693 | 48.44226 | 37022 ft | 480 kts | 130° |
| 2026-05-09 07:16 | -11.68981 | 48.49398 | 37021 ft | 481 kts | 130° |
| 2026-05-09 07:17 | -11.73296 | 48.54605 | 37022 ft | 480 kts | 130° |
| 2026-05-09 07:17 | -11.77614 | 48.59818 | 37021 ft | 481 kts | 130° |
| 2026-05-09 07:18 | -11.81931 | 48.65033 | 37272 ft | 482 kts | 130° |
| 2026-05-09 07:18 | -11.84094 | 48.67648 | 37606 ft | 481 kts | 130° |
| 2026-05-09 07:18 | -11.86252 | 48.70256 | 37927 ft | 480 kts | 130° |
| 2026-05-09 07:19 | -11.88409 | 48.72864 | 38255 ft | 479 kts | 130° |
| 2026-05-09 07:19 | -11.90557 | 48.75462 | 38523 ft | 479 kts | 130° |
| 2026-05-09 07:19 | -11.92705 | 48.78060 | 38788 ft | 478 kts | 130° |
| 2026-05-09 07:19 | -11.94852 | 48.80658 | 39027 ft | 478 kts | 130° |
| 2026-05-09 07:20 | -11.96991 | 48.83248 | 39266 ft | 477 kts | 130° |
| 2026-05-09 07:20 | -11.99134 | 48.85842 | 39462 ft | 477 kts | 130° |
| 2026-05-09 07:20 | -12.01244 | 48.88398 | 39681 ft | 476 kts | 130° |
| 2026-05-09 07:20 | -12.03378 | 48.90985 | 39909 ft | 476 kts | 130° |
| 2026-05-09 07:21 | -12.07653 | 48.96167 | 40013 ft | 476 kts | 130° |
| 2026-05-09 07:21 | -12.11916 | 49.01337 | 40013 ft | 475 kts | 130° |
| 2026-05-09 07:22 | -12.16180 | 49.06508 | 40015 ft | 476 kts | 130° |
| 2026-05-09 07:22 | -12.20445 | 49.11686 | 40020 ft | 476 kts | 130° |
| 2026-05-09 07:23 | -12.24706 | 49.16861 | 40021 ft | 476 kts | 130° |
| 2026-05-09 07:23 | -12.28968 | 49.22038 | 40023 ft | 476 kts | 131° |
| 2026-05-09 07:24 | -12.33229 | 49.27216 | 40022 ft | 476 kts | 130° |
| 2026-05-09 07:24 | -12.37839 | 49.32078 | 40022 ft | 475 kts | 136° |
| 2026-05-09 07:25 | -12.42548 | 49.36722 | 40021 ft | 475 kts | 137° |
| 2026-05-09 07:25 | -12.47373 | 49.41436 | 40026 ft | 475 kts | 137° |
| 2026-05-09 07:26 | -12.52157 | 49.46117 | 40030 ft | 476 kts | 137° |
| 2026-05-09 07:26 | -12.56908 | 49.50778 | 40030 ft | 476 kts | 137° |
| 2026-05-09 07:27 | -12.61681 | 49.55468 | 40034 ft | 476 kts | 137° |
| 2026-05-09 07:27 | -12.66464 | 49.60170 | 40038 ft | 475 kts | 137° |
| 2026-05-09 07:28 | -12.71231 | 49.64858 | 40035 ft | 476 kts | 137° |
| 2026-05-09 07:28 | -12.76004 | 49.69556 | 40037 ft | 476 kts | 137° |
| 2026-05-09 07:29 | -12.80779 | 49.74257 | 40037 ft | 476 kts | 137° |
| 2026-05-09 07:29 | -12.85559 | 49.78967 | 40034 ft | 476 kts | 137° |
| 2026-05-09 07:30 | -12.90338 | 49.83677 | 40036 ft | 477 kts | 137° |
| 2026-05-09 07:30 | -12.95086 | 49.88358 | 40035 ft | 477 kts | 137° |
| 2026-05-09 07:31 | -12.99880 | 49.93088 | 40040 ft | 477 kts | 137° |
| 2026-05-09 07:31 | -13.04656 | 49.97802 | 40035 ft | 477 kts | 137° |
| 2026-05-09 07:32 | -13.09450 | 50.02540 | 40041 ft | 477 kts | 137° |
| 2026-05-09 07:32 | -13.14237 | 50.07272 | 40042 ft | 478 kts | 137° |
| 2026-05-09 07:33 | -13.21413 | 50.14369 | 40044 ft | 478 kts | 137° |
| 2026-05-09 07:34 | -13.26208 | 50.19114 | 40047 ft | 478 kts | 137° |
| 2026-05-09 07:34 | -13.30998 | 50.23860 | 40045 ft | 479 kts | 137° |
| 2026-05-09 07:35 | -13.35759 | 50.28579 | 40044 ft | 479 kts | 137° |
| 2026-05-09 07:35 | -13.40557 | 50.33336 | 40049 ft | 479 kts | 137° |
| 2026-05-09 07:36 | -13.45352 | 50.38092 | 40046 ft | 479 kts | 137° |
| 2026-05-09 07:36 | -13.50146 | 50.42850 | 40048 ft | 479 kts | 137° |
| 2026-05-09 07:37 | -13.54944 | 50.47616 | 40048 ft | 480 kts | 137° |
| 2026-05-09 07:37 | -13.59756 | 50.52400 | 40051 ft | 480 kts | 137° |
| 2026-05-09 07:38 | -13.64554 | 50.57173 | 40051 ft | 480 kts | 137° |
| 2026-05-09 07:38 | -13.69334 | 50.61928 | 40051 ft | 480 kts | 137° |
| 2026-05-09 07:39 | -13.74139 | 50.66711 | 40051 ft | 481 kts | 137° |
| 2026-05-09 07:39 | -13.78944 | 50.71499 | 40054 ft | 481 kts | 137° |
| 2026-05-09 07:40 | -13.83750 | 50.76289 | 40055 ft | 481 kts | 137° |
| 2026-05-09 07:40 | -13.88556 | 50.81083 | 40050 ft | 481 kts | 137° |
| 2026-05-09 07:41 | -13.93365 | 50.85883 | 40049 ft | 481 kts | 137° |
| 2026-05-09 07:41 | -13.98166 | 50.90676 | 40052 ft | 481 kts | 137° |
| 2026-05-09 07:42 | -14.02979 | 50.95484 | 40053 ft | 482 kts | 137° |
| 2026-05-09 07:42 | -14.07787 | 51.00293 | 40048 ft | 482 kts | 137° |
| 2026-05-09 07:43 | -14.12606 | 51.05114 | 40051 ft | 482 kts | 137° |
| 2026-05-09 07:43 | -14.17418 | 51.09929 | 40051 ft | 483 kts | 137° |
| 2026-05-09 07:44 | -14.22205 | 51.14723 | 40052 ft | 483 kts | 137° |
| 2026-05-09 07:44 | -14.27025 | 51.19553 | 40056 ft | 483 kts | 137° |
| 2026-05-09 07:45 | -14.31842 | 51.24387 | 40055 ft | 483 kts | 137° |
| 2026-05-09 07:45 | -14.36660 | 51.29224 | 40053 ft | 483 kts | 137° |
| 2026-05-09 07:46 | -14.41474 | 51.34063 | 40052 ft | 484 kts | 137° |
| 2026-05-09 07:46 | -14.46306 | 51.38917 | 40054 ft | 484 kts | 137° |
| 2026-05-09 07:47 | -14.51135 | 51.43775 | 40056 ft | 484 kts | 137° |
| 2026-05-09 07:47 | -14.55962 | 51.48636 | 40056 ft | 484 kts | 137° |
| 2026-05-09 07:48 | -14.60789 | 51.53493 | 40051 ft | 485 kts | 137° |
| 2026-05-09 07:48 | -14.65585 | 51.58321 | 40055 ft | 485 kts | 137° |
| 2026-05-09 07:49 | -14.70432 | 51.63207 | 40062 ft | 486 kts | 137° |
| 2026-05-09 07:49 | -14.75266 | 51.68083 | 40045 ft | 486 kts | 137° |
| 2026-05-09 07:50 | -14.80099 | 51.72961 | 40061 ft | 486 kts | 137° |
| 2026-05-09 07:50 | -14.84940 | 51.77847 | 40063 ft | 486 kts | 137° |
| 2026-05-09 07:51 | -14.89784 | 51.82743 | 40048 ft | 487 kts | 137° |
| 2026-05-09 07:51 | -14.94626 | 51.87644 | 40049 ft | 487 kts | 137° |
| 2026-05-09 07:52 | -14.99476 | 51.92556 | 40064 ft | 488 kts | 137° |
| 2026-05-09 07:52 | -15.04298 | 51.97442 | 40065 ft | 488 kts | 137° |
| 2026-05-09 07:53 | -15.09181 | 52.02391 | 40066 ft | 488 kts | 137° |
| 2026-05-09 07:53 | -15.14000 | 52.07278 | 40046 ft | 488 kts | 137° |
| 2026-05-09 07:54 | -15.18852 | 52.12199 | 40050 ft | 489 kts | 137° |
| 2026-05-09 07:54 | -15.23704 | 52.17127 | 40064 ft | 489 kts | 137° |
| 2026-05-09 07:55 | -15.28557 | 52.22059 | 40052 ft | 489 kts | 137° |
| 2026-05-09 07:55 | -15.33410 | 52.26994 | 40054 ft | 489 kts | 137° |
| 2026-05-09 07:56 | -15.38270 | 52.31941 | 40052 ft | 489 kts | 137° |
| 2026-05-09 07:56 | -15.42313 | 52.36058 | 40056 ft | 490 kts | 137° |
| 2026-05-09 07:57 | -15.47173 | 52.41008 | 40056 ft | 490 kts | 137° |
| 2026-05-09 07:57 | -15.52030 | 52.45964 | 40061 ft | 490 kts | 137° |
| 2026-05-09 07:58 | -15.56895 | 52.50930 | 40062 ft | 490 kts | 137° |
| 2026-05-09 07:58 | -15.61760 | 52.55896 | 40061 ft | 490 kts | 137° |
| 2026-05-09 07:59 | -15.66591 | 52.60829 | 40065 ft | 491 kts | 137° |
| 2026-05-09 07:59 | -15.71457 | 52.65807 | 40056 ft | 491 kts | 137° |
| 2026-05-09 08:00 | -15.76322 | 52.70787 | 40061 ft | 491 kts | 137° |
| 2026-05-09 08:00 | -15.81182 | 52.75761 | 40060 ft | 491 kts | 137° |
| 2026-05-09 08:01 | -15.86062 | 52.80760 | 40061 ft | 491 kts | 137° |
| 2026-05-09 08:01 | -15.90930 | 52.85754 | 40060 ft | 491 kts | 137° |
| 2026-05-09 08:02 | -15.95788 | 52.90741 | 40064 ft | 492 kts | 137° |
| 2026-05-09 08:02 | -16.00628 | 52.95713 | 40065 ft | 492 kts | 137° |
| 2026-05-09 08:03 | -16.05495 | 53.00715 | 40063 ft | 492 kts | 137° |
| 2026-05-09 08:03 | -16.10357 | 53.05717 | 40064 ft | 492 kts | 137° |
| 2026-05-09 08:04 | -16.15226 | 53.10726 | 40061 ft | 492 kts | 137° |
| 2026-05-09 08:04 | -16.20091 | 53.15736 | 40060 ft | 492 kts | 137° |
| 2026-05-09 08:05 | -16.24959 | 53.20754 | 40061 ft | 492 kts | 137° |
| 2026-05-09 08:05 | -16.29827 | 53.25774 | 40057 ft | 492 kts | 137° |
| 2026-05-09 08:06 | -16.34693 | 53.30797 | 40060 ft | 492 kts | 137° |
| 2026-05-09 08:06 | -16.39567 | 53.35833 | 40355 ft | 493 kts | 137° |
| 2026-05-09 08:06 | -16.41999 | 53.38346 | 40546 ft | 493 kts | 137° |
| 2026-05-09 08:07 | -16.44433 | 53.40865 | 40741 ft | 493 kts | 137° |
| 2026-05-09 08:07 | -16.46871 | 53.43387 | 40928 ft | 493 kts | 137° |
| 2026-05-09 08:07 | -16.49306 | 53.45906 | 41050 ft | 494 kts | 137° |
| 2026-05-09 08:08 | -16.54183 | 53.50957 | 41061 ft | 493 kts | 137° |
| 2026-05-09 08:08 | -16.59020 | 53.55969 | 41061 ft | 493 kts | 137° |
| 2026-05-09 08:09 | -16.63881 | 53.61010 | 41064 ft | 493 kts | 137° |
| 2026-05-09 08:09 | -16.68747 | 53.66060 | 41059 ft | 494 kts | 137° |
| 2026-05-09 08:10 | -16.73611 | 53.71111 | 41063 ft | 494 kts | 137° |
| 2026-05-09 08:10 | -16.78480 | 53.76173 | 41064 ft | 494 kts | 137° |
| 2026-05-09 08:11 | -16.83352 | 53.81242 | 41056 ft | 494 kts | 137° |
| 2026-05-09 08:11 | -16.88217 | 53.86307 | 41058 ft | 494 kts | 137° |
| 2026-05-09 08:12 | -16.95522 | 53.93918 | 41062 ft | 494 kts | 137° |
| 2026-05-09 08:12 | -17.00387 | 53.98993 | 41064 ft | 495 kts | 137° |
| 2026-05-09 08:13 | -17.05254 | 54.04074 | 41062 ft | 495 kts | 137° |
| 2026-05-09 08:13 | -17.10120 | 54.09157 | 41065 ft | 495 kts | 137° |
| 2026-05-09 08:14 | -17.14967 | 54.14224 | 41068 ft | 495 kts | 137° |
| 2026-05-09 08:14 | -17.19869 | 54.19353 | 41061 ft | 495 kts | 137° |
| 2026-05-09 08:15 | -17.24707 | 54.24420 | 41056 ft | 496 kts | 137° |
| 2026-05-09 08:15 | -17.29580 | 54.29526 | 41066 ft | 496 kts | 137° |
| 2026-05-09 08:16 | -17.34459 | 54.34643 | 41064 ft | 496 kts | 137° |
| 2026-05-09 08:16 | -17.39330 | 54.39756 | 41057 ft | 496 kts | 137° |
| 2026-05-09 08:17 | -17.44202 | 54.44875 | 41068 ft | 497 kts | 137° |
| 2026-05-09 08:17 | -17.49088 | 54.50012 | 41069 ft | 497 kts | 137° |
| 2026-05-09 08:18 | -17.53971 | 54.55149 | 41060 ft | 497 kts | 137° |
| 2026-05-09 08:18 | -17.58850 | 54.60287 | 41070 ft | 497 kts | 137° |
| 2026-05-09 08:19 | -17.63735 | 54.65435 | 41071 ft | 497 kts | 137° |
| 2026-05-09 08:19 | -17.68613 | 54.70580 | 41051 ft | 498 kts | 137° |
| 2026-05-09 08:20 | -17.73489 | 54.75727 | 41067 ft | 498 kts | 137° |
| 2026-05-09 08:20 | -17.78341 | 54.80853 | 41075 ft | 498 kts | 137° |
| 2026-05-09 08:21 | -17.83227 | 54.86019 | 41077 ft | 498 kts | 137° |
| 2026-05-09 08:21 | -17.88113 | 54.91190 | 41067 ft | 498 kts | 137° |
| 2026-05-09 08:22 | -17.92999 | 54.96365 | 41066 ft | 498 kts | 137° |
| 2026-05-09 08:22 | -17.97880 | 55.01538 | 41064 ft | 499 kts | 137° |
| 2026-05-09 08:23 | -18.02764 | 55.06719 | 41073 ft | 499 kts | 137° |
| 2026-05-09 08:23 | -18.07621 | 55.11876 | 41072 ft | 499 kts | 137° |
| 2026-05-09 08:24 | -18.12530 | 55.17094 | 41067 ft | 499 kts | 137° |
| 2026-05-09 08:24 | -18.17413 | 55.22287 | 41069 ft | 499 kts | 137° |
| 2026-05-09 08:25 | -18.22269 | 55.27456 | 41070 ft | 499 kts | 137° |
| 2026-05-09 08:25 | -18.27159 | 55.32665 | 41070 ft | 499 kts | 137° |
| 2026-05-09 08:26 | -18.32040 | 55.37870 | 41073 ft | 500 kts | 137° |
| 2026-05-09 08:26 | -18.36926 | 55.43085 | 41073 ft | 500 kts | 137° |
| 2026-05-09 08:27 | -18.41805 | 55.48299 | 41074 ft | 500 kts | 137° |
| 2026-05-09 08:27 | -18.46690 | 55.53524 | 41074 ft | 500 kts | 137° |
| 2026-05-09 08:28 | -18.51635 | 55.58676 | 41077 ft | 499 kts | 139° |
| 2026-05-09 08:28 | -18.56728 | 55.63656 | 41074 ft | 500 kts | 139° |
| 2026-05-09 08:29 | -18.61805 | 55.68664 | 41074 ft | 500 kts | 139° |
| 2026-05-09 08:29 | -18.66837 | 55.73653 | 41075 ft | 500 kts | 139° |
| 2026-05-09 08:30 | -18.71909 | 55.78692 | 41078 ft | 500 kts | 139° |
| 2026-05-09 08:30 | -18.76979 | 55.83734 | 41082 ft | 501 kts | 139° |
| 2026-05-09 08:31 | -18.82037 | 55.88770 | 40884 ft | 500 kts | 139° |
| 2026-05-09 08:31 | -18.84573 | 55.91296 | 40635 ft | 500 kts | 139° |
| 2026-05-09 08:31 | -18.87109 | 55.93824 | 40396 ft | 501 kts | 139° |
| 2026-05-09 08:32 | -18.89646 | 55.96353 | 40150 ft | 502 kts | 139° |
| 2026-05-09 08:32 | -18.92181 | 55.98883 | 39905 ft | 502 kts | 139° |
| 2026-05-09 08:32 | -18.97271 | 56.03964 | 39451 ft | 503 kts | 139° |
| 2026-05-09 08:33 | -18.99812 | 56.06502 | 39215 ft | 503 kts | 139° |
| 2026-05-09 08:33 | -19.02361 | 56.09049 | 38975 ft | 504 kts | 139° |
| 2026-05-09 08:33 | -19.04865 | 56.11553 | 38502 ft | 501 kts | 139° |
| 2026-05-09 08:33 | -19.07390 | 56.14080 | 37831 ft | 500 kts | 140° |
| 2026-05-09 08:34 | -19.09917 | 56.16610 | 37170 ft | 499 kts | 140° |
| 2026-05-09 08:34 | -19.12432 | 56.19128 | 36496 ft | 499 kts | 140° |
| 2026-05-09 08:34 | -19.14956 | 56.21656 | 35810 ft | 499 kts | 140° |
| 2026-05-09 08:34 | -19.17480 | 56.24185 | 35103 ft | 500 kts | 141° |
| 2026-05-09 08:35 | -19.20006 | 56.26717 | 34360 ft | 501 kts | 141° |
| 2026-05-09 08:35 | -19.22549 | 56.29265 | 33475 ft | 504 kts | 141° |
| 2026-05-09 08:35 | -19.25106 | 56.31825 | 32606 ft | 506 kts | 140° |
| 2026-05-09 08:35 | -19.27669 | 56.34394 | 31730 ft | 508 kts | 140° |
| 2026-05-09 08:36 | -19.30238 | 56.36971 | 30849 ft | 511 kts | 139° |
| 2026-05-09 08:36 | -19.32796 | 56.39538 | 29880 ft | 515 kts | 139° |
| 2026-05-09 08:36 | -19.35408 | 56.42165 | 29022 ft | 515 kts | 138° |
| 2026-05-09 08:36 | -19.37991 | 56.44767 | 28316 ft | 511 kts | 138° |
| 2026-05-09 08:37 | -19.40559 | 56.47354 | 27601 ft | 507 kts | 138° |
| 2026-05-09 08:37 | -19.43104 | 56.49916 | 26925 ft | 503 kts | 138° |
| 2026-05-09 08:37 | -19.45633 | 56.52464 | 26234 ft | 500 kts | 138° |
| 2026-05-09 08:37 | -19.48090 | 56.54942 | 25569 ft | 476 kts | 138° |
| 2026-05-09 08:38 | -19.50463 | 56.57334 | 24904 ft | 467 kts | 137° |
| 2026-05-09 08:38 | -19.52829 | 56.59717 | 24257 ft | 470 kts | 137° |
| 2026-05-09 08:38 | -19.55199 | 56.62106 | 23575 ft | 469 kts | 137° |
| 2026-05-09 08:38 | -19.57552 | 56.64479 | 22831 ft | 466 kts | 137° |
| 2026-05-09 08:39 | -19.59891 | 56.66841 | 22163 ft | 461 kts | 136° |
| 2026-05-09 08:39 | -19.62201 | 56.69175 | 21509 ft | 457 kts | 136° |
| 2026-05-09 08:39 | -19.64493 | 56.71491 | 20860 ft | 452 kts | 136° |
| 2026-05-09 08:39 | -19.66758 | 56.73780 | 20190 ft | 448 kts | 136° |
| 2026-05-09 08:40 | -19.69003 | 56.76052 | 19520 ft | 445 kts | 136° |
| 2026-05-09 08:40 | -19.71228 | 56.78302 | 19050 ft | 437 kts | 136° |
| 2026-05-09 08:40 | -19.73414 | 56.80514 | 18654 ft | 431 kts | 135° |
| 2026-05-09 08:40 | -19.75585 | 56.82712 | 18454 ft | 434 kts | 135° |
| 2026-05-09 08:41 | -19.77775 | 56.84932 | 18232 ft | 435 kts | 135° |
| 2026-05-09 08:41 | -19.79961 | 56.87147 | 17988 ft | 433 kts | 135° |
| 2026-05-09 08:41 | -19.82134 | 56.89352 | 17765 ft | 431 kts | 135° |
| 2026-05-09 08:41 | -19.83568 | 56.90807 | 17616 ft | 429 kts | 135° |
| 2026-05-09 08:42 | -19.85719 | 56.92989 | 17394 ft | 427 kts | 135° |
| 2026-05-09 08:42 | -19.87865 | 56.95166 | 17172 ft | 424 kts | 135° |
| 2026-05-09 08:42 | -19.89995 | 56.97328 | 16933 ft | 422 kts | 135° |
| 2026-05-09 08:42 | -19.92109 | 56.99474 | 16718 ft | 420 kts | 135° |
| 2026-05-09 08:43 | -19.94214 | 57.01612 | 16502 ft | 417 kts | 135° |
| 2026-05-09 08:43 | -19.96304 | 57.03737 | 16287 ft | 415 kts | 135° |
| 2026-05-09 08:43 | -19.98392 | 57.05861 | 16055 ft | 413 kts | 135° |
| 2026-05-09 08:43 | -20.00464 | 57.07968 | 15854 ft | 411 kts | 135° |
| 2026-05-09 08:44 | -20.02522 | 57.10062 | 15635 ft | 409 kts | 135° |
| 2026-05-09 08:44 | -20.04570 | 57.12147 | 15410 ft | 407 kts | 135° |
| 2026-05-09 08:44 | -20.06611 | 57.14225 | 15218 ft | 404 kts | 135° |
| 2026-05-09 08:44 | -20.08639 | 57.16290 | 15005 ft | 402 kts | 135° |
| 2026-05-09 08:45 | -20.10626 | 57.18318 | 14799 ft | 400 kts | 135° |
| 2026-05-09 08:45 | -20.12633 | 57.20366 | 14590 ft | 398 kts | 135° |
| 2026-05-09 08:45 | -20.14629 | 57.22402 | 14394 ft | 397 kts | 135° |
| 2026-05-09 08:45 | -20.16616 | 57.24429 | 14193 ft | 395 kts | 135° |
| 2026-05-09 08:46 | -20.18595 | 57.26449 | 13974 ft | 393 kts | 135° |
| 2026-05-09 08:46 | -20.20506 | 57.28522 | 13754 ft | 391 kts | 129° |
| 2026-05-09 08:46 | -20.21942 | 57.30948 | 13526 ft | 388 kts | 113° |
| 2026-05-09 08:46 | -20.22623 | 57.33709 | 13302 ft | 386 kts | 96° |
| 2026-05-09 08:47 | -20.22473 | 57.36551 | 13067 ft | 385 kts | 79° |
| 2026-05-09 08:47 | -20.21529 | 57.39169 | 12856 ft | 374 kts | 61° |
| 2026-05-09 08:47 | -20.19881 | 57.41151 | 12648 ft | 342 kts | 39° |
| 2026-05-09 08:47 | -20.17772 | 57.42138 | 12470 ft | 331 kts | 13° |
| 2026-05-09 08:48 | -20.15473 | 57.42040 | 12259 ft | 336 kts | 347° |
| 2026-05-09 08:48 | -20.13402 | 57.40871 | 12029 ft | 342 kts | 321° |
| 2026-05-09 08:48 | -20.11887 | 57.38913 | 11831 ft | 344 kts | 304° |
| 2026-05-09 08:48 | -20.10642 | 57.36777 | 11607 ft | 344 kts | 305° |
| 2026-05-09 08:49 | -20.09217 | 57.34743 | 11384 ft | 342 kts | 311° |
| 2026-05-09 08:49 | -20.07679 | 57.32842 | 11186 ft | 331 kts | 313° |
| 2026-05-09 08:49 | -20.06331 | 57.30931 | 10971 ft | 320 kts | 298° |
| 2026-05-09 08:49 | -20.05738 | 57.28685 | 10787 ft | 316 kts | 275° |
| 2026-05-09 08:50 | -20.05806 | 57.26357 | 10583 ft | 314 kts | 259° |
| 2026-05-09 08:50 | -20.06458 | 57.24152 | 10361 ft | 311 kts | 241° |
| 2026-05-09 08:50 | -20.07733 | 57.22334 | 10164 ft | 305 kts | 219° |
| 2026-05-09 08:50 | -20.09521 | 57.21184 | 9959 ft | 297 kts | 196° |
| 2026-05-09 08:51 | -20.11523 | 57.20871 | 9731 ft | 289 kts | 173° |
| 2026-05-09 08:51 | -20.13416 | 57.21392 | 9514 ft | 282 kts | 150° |
| 2026-05-09 08:51 | -20.14982 | 57.22601 | 9276 ft | 278 kts | 134° |
| 2026-05-09 08:51 | -20.16344 | 57.24022 | 8998 ft | 269 kts | 133° |
| 2026-05-09 08:52 | -20.17653 | 57.25408 | 8813 ft | 260 kts | 133° |
| 2026-05-09 08:52 | -20.18926 | 57.26740 | 8577 ft | 253 kts | 133° |
| 2026-05-09 08:52 | -20.20176 | 57.28051 | 8269 ft | 251 kts | 133° |
| 2026-05-09 08:52 | -20.21191 | 57.29522 | 7862 ft | 247 kts | 108° |
| 2026-05-09 08:53 | -20.21276 | 57.31302 | 7541 ft | 243 kts | 78° |
| 2026-05-09 08:53 | -20.20575 | 57.32946 | 7206 ft | 244 kts | 56° |
| 2026-05-09 08:53 | -20.19297 | 57.34137 | 6875 ft | 249 kts | 31° |
| 2026-05-09 08:53 | -20.17623 | 57.34650 | 6545 ft | 254 kts | 9° |
| 2026-05-09 08:54 | -20.15965 | 57.35070 | 6177 ft | 241 kts | 33° |
| 2026-05-09 08:54 | -20.14776 | 57.36233 | 5685 ft | 226 kts | 59° |
| 2026-05-09 08:54 | -20.14216 | 57.37764 | 5090 ft | 221 kts | 82° |
| 2026-05-09 08:54 | -20.14268 | 57.39372 | 4521 ft | 218 kts | 102° |
| 2026-05-09 08:55 | -20.14899 | 57.40831 | 4162 ft | 222 kts | 124° |
| 2026-05-09 08:55 | -20.16074 | 57.41895 | 3905 ft | 225 kts | 147° |
| 2026-05-09 08:55 | -20.17497 | 57.42628 | 3655 ft | 225 kts | 151° |
| 2026-05-09 08:55 | -20.18903 | 57.43297 | 3392 ft | 224 kts | 150° |
| 2026-05-09 08:56 | -20.20306 | 57.43979 | 3165 ft | 219 kts | 150° |
| 2026-05-09 08:56 | -20.21658 | 57.44650 | 3074 ft | 208 kts | 148° |
| 2026-05-09 08:56 | -20.22935 | 57.45291 | 2988 ft | 197 kts | 148° |
| 2026-05-09 08:56 | -20.24163 | 57.45918 | 2962 ft | 195 kts | 147° |
| 2026-05-09 08:57 | -20.25390 | 57.46553 | 2946 ft | 197 kts | 147° |
| 2026-05-09 08:57 | -20.26588 | 57.47169 | 2946 ft | 184 kts | 148° |
| 2026-05-09 08:57 | -20.27717 | 57.47749 | 2959 ft | 179 kts | 148° |
| 2026-05-09 08:57 | -20.28836 | 57.48327 | 2952 ft | 178 kts | 148° |
| 2026-05-09 08:58 | -20.29950 | 57.48904 | 2949 ft | 178 kts | 147° |
| 2026-05-09 08:58 | -20.31068 | 57.49481 | 2958 ft | 178 kts | 147° |
| 2026-05-09 08:58 | -20.32165 | 57.50043 | 2951 ft | 172 kts | 145° |
| 2026-05-09 08:58 | -20.33198 | 57.50569 | 2964 ft | 157 kts | 145° |
| 2026-05-09 08:59 | -20.34161 | 57.51076 | 2966 ft | 153 kts | 145° |
| 2026-05-09 08:59 | -20.34913 | 57.51818 | 2966 ft | 145 kts | 121° |
| 2026-05-09 08:59 | -20.35444 | 57.52714 | 2956 ft | 141 kts | 117° |
| 2026-05-09 08:59 | -20.35922 | 57.53627 | 2964 ft | 142 kts | 115° |
| 2026-05-09 09:00 | -20.36389 | 57.54550 | 2959 ft | 137 kts | 114° |
| 2026-05-09 09:00 | -20.36800 | 57.55406 | 2968 ft | 125 kts | 113° |
| 2026-05-09 09:00 | -20.37188 | 57.56216 | 2873 ft | 124 kts | 112° |
| 2026-05-09 09:00 | -20.37579 | 57.57027 | 2704 ft | 123 kts | 112° |
| 2026-05-09 09:01 | -20.37972 | 57.57844 | 2471 ft | 122 kts | 112° |
| 2026-05-09 09:01 | -20.38351 | 57.58631 | 2264 ft | 120 kts | 112° |
| 2026-05-09 09:01 | -20.38731 | 57.59420 | 2070 ft | 119 kts | 112° |
| 2026-05-09 09:01 | -20.39094 | 57.60195 | 1861 ft | 119 kts | 112° |
| 2026-05-09 09:02 | -20.39477 | 57.60988 | 1644 ft | 118 kts | 114° |
| 2026-05-09 09:02 | -20.39853 | 57.61779 | 1495 ft | 121 kts | 115° |
| 2026-05-09 09:02 | -20.40237 | 57.62588 | 1363 ft | 123 kts | 114° |
| 2026-05-09 09:02 | -20.40626 | 57.63407 | 1195 ft | 123 kts | 114° |
| 2026-05-09 09:03 | -20.41018 | 57.64212 | 1006 ft | 122 kts | 112° |
| 2026-05-09 09:03 | -20.41406 | 57.65012 | 755 ft | 122 kts | 113° |
| 2026-05-09 09:03 | -20.41799 | 57.65834 | 540 ft | 125 kts | 112° |
| 2026-05-09 09:03 | -20.42204 | 57.66673 | 332 ft | 130 kts | 114° |
| 2026-05-09 09:04 | -20.42621 | 57.67531 | 184 ft | 129 kts | 114° |
| 2026-05-09 09:04 | -20.42974 | 57.68262 | 157 ft | 78 kts | 117° |
| 2026-05-09 09:04 | -20.43095 | 57.68466 | 152 ft | 0 kts | 166° |
| 2026-05-09 09:04 | -20.43145 | 57.68453 | 152 ft | 14 kts | 201° |
| 2026-05-09 09:05 | -20.43152 | 57.68449 | 152 ft | 0 kts | 204° |
| 2026-05-09 09:05 | -20.43173 | 57.68440 | 152 ft | 6 kts | 204° |
| 2026-05-09 09:05 | -20.43238 | 57.68409 | 152 ft | 13 kts | 204° |
| 2026-05-09 09:06 | -20.43287 | 57.68337 | 153 ft | 13 kts | 269° |
| 2026-05-09 09:06 | -20.43280 | 57.68308 | 154 ft | 0 kts | 290° |
| 2026-05-09 09:09 | -20.43278 | 57.68303 | 154 ft | 8 kts | 291° |
| 2026-05-09 09:09 | -20.43239 | 57.68217 | 156 ft | 14 kts | 296° |
| 2026-05-09 09:09 | -20.43193 | 57.68121 | 159 ft | 15 kts | 297° |
| 2026-05-09 09:10 | -20.43143 | 57.68020 | 162 ft | 16 kts | 298° |
| 2026-05-09 09:10 | -20.43089 | 57.67912 | 165 ft | 17 kts | 298° |
| 2026-05-09 09:10 | -20.43042 | 57.67816 | 167 ft | 0 kts | 298° |
| 2026-05-09 09:11 | -20.43023 | 57.67763 | 169 ft | 1 kts | 268° |
| 2026-05-09 09:11 | -20.43035 | 57.67744 | 169 ft | 8 kts | 230° |
| 2026-05-09 09:11 | -20.43078 | 57.67715 | 169 ft | 0 kts | 208° |
| 2026-05-09 09:12 | -20.43093 | 57.67707 | 169 ft | 0 kts | 207° |